Water and Atmospheric Resources Monitoring Program - , Illinois State Water Survey

Water and Atmospheric Resources Monitoring Program (WARM)

Weather Soil Groundwater Sediment Streamflow Reservoirs

#125 Kankakee (USGS #5520500)


Instantaneous Suspended Sediment Measurements

Date Time    Gage Ht. Temp Cs Qw Qs Final F
i
n
a
l
     (feet) (C) (mg/l) (cfs) (t/d)  
3/4/1982 09:00    3.25 64.00 3751 648.1 True x
3/5/1982 15:30    3.17 48.00 3604 467.1 True x
3/6/1982 09:00    3.12 40.00 3513 379.4 True x
3/7/1982 07:30    3.10 50.00 3477 469.4 True x
3/8/1982 09:00    3.00 49.00 3300 436.6 True x
3/9/1982 14:00    2.90 52.00 3106 436.1 True x
3/10/1982 08:30    2.84 33.00 2993 266.6 True x
3/11/1982 09:00    3.78 423.00 4776 5,456.0 True x
3/12/1982 09:30    4.28 236.00 5826 3,713.0 True x
3/13/1982 08:30    5.07 805.00 7638 16,610.0 True x
3/14/1982 06:45    4.82 295.00 7045 5,612.0 True x
3/15/1982 13:00    4.75 199.00 6882 3,698.0 True x
3/16/1982 08:30    4.99 248.00 7446 4,987.0 True x
3/17/1982 08:00    5.00 316.00 7470 6,375.0 True x
3/18/1982 09:00    4.80 131.00 6998 2,475.0 True x
3/19/1982 08:30    5.00 260.00 7470 5,245.0 True x
3/20/1982 08:30    5.20 214.00 7954 4,596.0 True x
3/21/1982 06:30    5.08 30.00 7662 620.6 True x
3/22/1982 10:45    4.86 104.00 7139 2,005.0 True x
3/23/1982 08:50    4.73 157.00 6836 2,898.0 True x
3/24/1982 09:00    4.63 66.00 6606 1,177.0 True x
3/25/1982 08:30    4.50 63.00 6311 1,074.0 True x
3/26/1982 08:00    4.40 34.00 6089 559.0 True x
3/27/1982 09:30    4.42 34.00 6133 563.1 True x
3/28/1982 07:00    4.33 38.00 5935 608.9 True x
3/29/1982 16:20    4.27 10 62.00 5804 971.6 True x
3/30/1982 10:00    4.35 37.00 5979 597.3 True x
3/31/1982 13:00    4.50 13 57.00 6311 971.3 True x
4/1/1982 10:00    4.45 11 51.00 6200 853.8 True x
4/2/1982 14:20    4.41 14 34.00 6111 561.0 True x
4/3/1982 07:00    4.40 28.00 6089 460.3 True x
4/4/1982 10:00    4.42 182.00 6133 3,014.0 True x
4/5/1982 10:00    4.22 63.00 5695 968.8 True x
4/6/1982 11:30    4.30 84.00 5869 1,331.0 True x
4/7/1982 09:00    4.25 39.00 5761 606.6 True x
4/8/1982 07:15    4.20 52.00 5652 793.6 True x
4/8/1982 09:15    4.20 47.00 5609 711.8 True x
4/9/1982 10:00    4.16 65.00 5566 976.9 True x
4/10/1982 10:00    4.20 64.00 5652 976.7 True x
4/11/1982 08:00    4.22 80.00 5695 1,230.0 True x
4/12/1982 09:00    4.25 73.00 5761 1,135.0 True x
4/13/1982 09:30    4.26 62.00 5782 968.0 True x
4/14/1982 09:00    4.15 10 50.00 5545 748.6 True x
4/15/1982 11:00    4.00 13 53.00 5228 748.2 True x
4/16/1982 11:00    4.25 12 75.00 5761 1,167.0 True x
4/17/1982 09:00    4.91 13 783.00 7257 15,350.0 True x
4/18/1982 06:20    4.69 12 161.00 6743 2,932.0 True x
4/19/1982 15:15    4.22 14 51.00 5695 784.3 True x
4/20/1982 08:30    4.00 11 57.00 5228 804.6 True x
4/21/1982 10:00    3.91 13 71.00 5041 966.4 True x
4/22/1982 10:15    3.82 13 52.00 4857 681.9 True x
4/23/1982 06:00    3.70 10 71.00 4615 884.7 True x
4/24/1982 09:15    3.60 14 82.00 4417 978.0 True x
4/25/1982 07:00    3.60 14 77.00 4417 918.3 True x
4/26/1982 07:00    3.55 13 71.00 4320 828.1 True x
4/27/1982 09:00    3.47 14 73.00 4165 820.9 True x
4/28/1982 08:30    3.43 14 74.00 4088 816.9 True x
4/29/1982 10:30    3.40 14 83.00 4031 903.4 True x
4/30/1982 14:00    3.35 17 94.00 3937 999.3 True x
5/1/1982 08:05    3.26 16 86.00 3769 875.2 True x
5/2/1982 07:00    3.23 14 70.00 3714 701.9 True x
5/4/1982 11:00    3.00 18 79.00 3300 703.9 True x
5/5/1982 06:55    2.95 21 73.00 3203 631.3 True x
5/6/1982 07:10    2.93 19 78.00 3164 666.4 True x
5/7/1982 08:00    2.90 19 81.00 3106 679.3 True x
5/8/1982 09:00    2.86 19 98.00 3030 801.9 True x
5/9/1982 06:50    2.80 16 76.00 2917 598.6 True x
5/10/1982 10:20    2.73 20 72.00 2789 542.2 True x
5/11/1982 08:15    2.67 19 83.00 2680 600.7 True x
5/11/1982 08:30    2.62 21 73.00 2591 510.7 True x
5/11/1982 10:15    2.63 19 75.00 2591 545.6 True x
5/12/1982 09:30    2.54 21 92.00 2452 609.1 True x
5/13/1982 08:00    2.48 20 92.00 2349 583.6 True x
5/14/1982 17:30    2.43 24 80.00 2265 489.4 True x
5/15/1982 18:30    2.40 21 79.00 2215 472.5 True x
5/16/1982 07:00    2.40 20 82.00 2215 490.4 True x
5/17/1982 08:10    2.33 20 65.00 2102 368.8 True x
5/18/1982 18:00    2.30 23 74.00 2053 410.2 True x
5/19/1982 15:00    2.29 20 86.00 2037 473.1 True x
5/20/1982 17:45    2.27 21 67.00 2006 362.9 True x
5/21/1982 07:00    2.30 19 87.00 2053 482.3 True x
5/22/1982 08:45    2.40 19 82.00 2215 490.4 True x
5/23/1982 06:50    2.43 17 71.00 2265 434.3 True x
5/24/1982 10:00    2.44 17 76.00 2282 468.3 True x
5/25/1982 08:00    2.44 17 78.00 2282 480.7 True x
5/26/1982 07:35    2.40 16 85.00 2215 508.4 True x
5/27/1982 10:40    2.45 17 75.00 2299 455.6 True x
5/28/1982 12:30    2.48 21 102.00 2349 647.1 True x
5/29/1982 09:00    2.49 19 76.00 2366 485.6 True x
5/30/1982 06:50    2.50 19 76.00 2383 489.0 True x
5/31/1982 07:20    2.52 20 77.00 2417 502.6 True x
6/1/1982 10:30    2.72 20 56.00 2771 418.9 True x
6/2/1982 07:00    2.75 18 62.00 2826 473.0 True x
6/4/1982 10:00    2.78 20 61.00 2880 474.4 True x
6/5/1982 15:00    2.78 21 62.00 2880 482.2 True x
6/6/1982 07:00    2.76 16 59.00 2844 453.0 True x
6/7/1982 06:15    2.71 21 35.00 2752 260.1 True x
6/8/1982 18:30    2.62 21 45.00 2591 314.8 True x
6/9/1982 11:00    2.50 20 44.00 2383 283.1 True x
6/10/1982 07:30    2.45 18 56.00 2299 347.6 True x
6/11/1982 09:00    2.40 20 59.00 2215 352.9 True x
6/12/1982 18:00    2.32 22 69.00 2085 388.5 True x
6/13/1982 07:00    2.26 20 68.00 1990 365.4 True x
6/14/1982 09:30    2.20 21 58.00 1896 296.9 True x
6/15/1982 09:00    2.15 21 76.00 1821 373.6 True x
6/16/1982 11:00    2.10 21 63.00 1745 296.8 True x
6/17/1982 08:20    2.08 17 64.00 1716 296.5 True x
6/18/1982 16:10    2.16 21 67.00 1836 332.1 True x
6/19/1982 08:00    2.10 19 56.00 1745 263.9 True x
6/20/1982 07:10    2.03 18 86.00 1644 381.6 True x
6/21/1982 08:25    2.00 18 83.00 1600 358.6 True x
6/22/1982 08:25    2.06 19 98.00 1687 446.4 True x
6/23/1982 11:00    1.95 21 84.00 1531 347.1 True x
6/24/1982 08:15    1.94 20 59.00 1517 241.6 True x
6/25/1982 07:00    1.90 18 59.00 1461 232.7 True x
6/26/1982 09:00    1.89 20 58.00 1448 226.7 True x
6/27/1982 07:00    1.95 18 59.00 1531 243.8 True x
6/28/1982 09:00    2.02 21 124.00 1629 545.4 True x
6/29/1982 08:00    1.98 19 77.00 1572 326.9 True x
6/29/1982 14:20    2.06 24 103.00 1687 469.2 True x
6/30/1982 08:30    1.99 20 62.00 1586 265.5 True x
6/30/1982 09:15    2.01 20 48.00 1615 239.8 True x
7/1/1982 14:00    2.00 21 80.00 1600 345.6 True x
7/2/1982 16:10    2.01 20 103.00 1615 449.0 True x
7/3/1982 14:30    2.02 21 80.00 1629 351.9 True x
7/4/1982 08:00    2.00 21 102.00 1600 440.7 True x
7/5/1982 07:50    2.00 21 76.00 1600 375.9 True x
7/6/1982 18:30    2.06 25 72.00 1687 328.0 True x
7/7/1982 07:45    2.17 23 74.00 1851 369.8 True x
7/8/1982 13:00    2.20 25 54.00 1896 276.4 True x
7/9/1982 09:00    2.19 23 50.00 1881 253.9 True x
7/10/1982 10:00    2.15 24 91.00 1821 447.3 True x
7/11/1982 07:00    2.18 21 76.00 1866 382.9 True x
7/12/1982 20:00    2.12 23 83.00 1775 397.8 True x
7/13/1982 13:30    2.09 24 67.00 1731 313.1 True x
7/14/1982 13:30    2.09 23 76.00 1731 355.1 True x
7/15/1982 09:10    2.11 24 74.00 1760 351.7 True x
7/16/1982 08:00    2.15 24 68.00 1821 334.3 True x
7/17/1982 08:00    2.14 24 144.00 1805 701.8 True x
7/18/1982 06:30    2.14 23 58.00 1805 282.7 True x
7/19/1982 08:00    2.17 23 53.00 1851 264.8 True x
7/20/1982 07:10    2.24 22 49.00 1959 259.2 True x
7/21/1982 07:30    2.18 25 74.00 1866 372.8 True x
7/22/1982 08:00    2.13 23 85.00 1790 410.9 True x
7/23/1982 18:40    2.09 24 68.00 1731 317.7 True x
7/24/1982 08:40    2.05 23 81.00 1672 365.8 True x
7/25/1982 07:00    2.04 22 71.00 1658 317.9 True x
7/26/1982 07:30    1.93 26 80.00 1503 324.6 True x
7/27/1982 19:00    1.86 24 78.00 1408 296.5 True x
7/28/1982 09:00    1.84 24 78.00 1381 290.9 True x
7/29/1982 07:30    1.80 23 80.00 1328 286.9 True x
7/30/1982 08:00    1.82 22 81.00 1355 296.3 True x
7/31/1982 08:00    1.76 22 88.00 1277 303.4 True x
8/1/1982 07:10    1.74 21 87.00 1251 293.9 True x
8/2/1982 15:15    1.72 26 94.00 1226 311.1 True x
8/3/1982 06:30    1.70 20 98.00 1200 317.5 True x
8/4/1982 08:00    1.69 24 76.00 1188 243.7 True x
8/5/1982 10:00    1.68 25 78.00 1176 247.6 True x
8/6/1982 08:00    1.67 23 79.00 1163 248.2 True x
8/7/1982 09:00    1.72 23 88.00 1226 291.2 True x
8/8/1982 09:00    1.79 23 91.00 1315 323.2 True x
8/9/1982 19:15    1.86 24 93.00 1408 353.5 True x
8/10/1982 13:00    1.92 21 63.00 1489 253.3 True x
8/11/1982 08:30    1.95 20 80.00 1531 330.6 True x
8/12/1982 18:00    2.04 21 61.00 1658 273.1 True x
8/13/1982 10:30    2.01 20 51.00 1615 213.6 True x
8/13/1982 13:00    2.07 22 48.00 1701 220.5 True x
8/14/1982 10:00    2.01 23 46.00 1615 200.5 True x
8/15/1982 07:00    1.95 19 49.00 1531 202.5 True x
8/16/1982 07:00    1.86 19 54.00 1408 205.3 True x
8/17/1982 11:00    1.75 23 55.00 1264 187.7 True x
8/18/1982 08:00    1.70 20 76.00 1200 246.3 True x
8/19/1982 10:00    1.62 23 70.00 1102 208.4 True x
8/20/1982 18:00    1.60 24 83.00 1078 241.6 True x
8/21/1982 14:30    1.57 25 72.00 1043 202.8 True x
8/22/1982 06:45    1.55 19 75.00 1020 206.6 True x
8/23/1982 08:20    1.55 21 62.00 1020 170.8 True x
8/24/1982 09:00    1.55 22 75.00 1020 206.6 True x
8/25/1982 09:30    1.54 22 77.00 1008 209.7 True x
8/26/1982 19:00    1.52 20 67.00 985 178.2 True x
8/27/1982 13:00    1.51 20 73.00 973 191.9 True x
8/28/1982 09:00    1.50 17 76.00 962 197.4 True x
8/29/1982 07:00    1.49 14 74.00 951 190.0 True x
8/30/1982 18:00    1.47 20 62.00 928 155.5 True x
8/31/1982 18:00    1.46 21 55.00 917 136.3 True x
9/19/1982 07:00    1.47 14 48.00 928 120.4 True x
9/29/1982 07:00    1.52 14 60.00 985 159.6 True x
10/3/1982 07:00    1.45 17 67.00 906 164.1 True x
10/10/1982 09:00    1.55 15 65.00 1020 179.0 True x
10/17/1982 07:00    1.43 15 43.00 884 102.7 True x
10/24/1982 13:00    1.38 16 29.00 830 65.0 True x
10/31/1982 07:00    1.41 15 54.00 862 125.8 True x
11/2/1982 15:45    1.74 13 72.00 1251 243.2 True x
11/3/1982 15:00    1.87 49.00 1421 188.0 True x
11/7/1982 07:00    2.19 25.00 1882 127.0 True x
11/14/1982 07:00    2.23 78.00 1944 409.4 True x
11/21/1982 07:00    2.42 11 45.00 2249 273.3 True x
11/22/1982 09:00    2.40 10 39.00 2216 233.4 True x
11/28/1982 07:00    2.54 13.00 2452 86.1 True x
12/4/1982 08:00    4.77 13 405.00 6929 7,578.0 True x
12/5/1982 07:00    4.40 13 248.00 6089 4,078.0 True x
12/12/1982 15:00    3.54 45.00 4301 522.5 True x
12/19/1982 09:30    2.98 85.00 3261 748.5 True x
12/26/1982 08:30    3.41 95.00 4050 1,039.0 True x
12/27/1982 09:00    3.18 10 66.00 3623 645.6 True x
1/2/1983 15:00    2.01 31.00 1615 135.1 True x
1/9/1983 08:30    2.10 34.00 1746 160.3 True x
1/16/1983 08:30    2.28 36.00 2022 196.5 True x
1/23/1983 08:30    2.19 39.00 1882 198.2 True x
1/30/1983 07:00    2.15 38.00 1822 186.9 True x
2/6/1983 08:00    2.67 25.00 2681 180.9 True x
2/13/1983 16:00    2.25 32.00 1975 170.6 True x
2/20/1983 07:50    2.34 31.00 2118 177.3 True x
2/27/1983 07:00    2.19 23.00 1882 116.9 True x
3/6/1983 07:00    2.09 14 42.00 1731 196.3 True x
3/13/1983 07:00    2.17 19.00 1852 95.0 True x
3/20/1983 06:50    2.29 30.00 2037 165.0 True x
3/27/1983 09:05    2.45 19.00 2300 118.0 True x
3/28/1983 14:00    2.85 121.00 3012 984.1 True x
3/29/1983 15:20    2.78 10 24.00 2881 186.7 True x
3/30/1983 08:00    2.88 19.00 3068 157.4 True x
3/31/1983 09:40    3.11 93.00 3496 877.9 True x
4/1/1983 10:00    3.25 105.00 3751 1,063.0 True x
4/2/1983 08:35    3.44 142.00 4108 1,575.0 True x
4/3/1983 07:15    4.11 137.00 5460 2,020.0 True x
4/4/1983 15:30    3.83 73.00 4878 961.4 True x
4/5/1983 14:00    3.70 54.00 4615 672.9 True x
4/6/1983 10:00    3.67 68.00 4556 836.4 True x
4/7/1983 10:00    3.63 66.00 4476 797.7 True x
4/8/1983 08:30    3.60 42.00 4417 500.9 True x
4/9/1983 08:05    3.55 32.00 4320 373.3 True x
4/10/1983 08:00    3.73 59.00 4675 744.8 True x
4/11/1983 15:30    3.65 10 33.00 4516 402.4 True x
4/12/1983 08:00    3.54 10 41.00 4301 476.1 True x
4/13/1983 09:45    3.48 12 66.00 4185 745.7 True x
4/14/1983 08:40    4.03 11 252.00 5291 3,601.0 True x
4/15/1983 08:00    3.90 10 50.00 5021 677.9 True x
4/16/1983 07:00    3.75 60.00 4716 763.9 True x
4/18/1983 08:30    3.64 8.00 4496 97.1 True x
4/19/1983 08:00    3.60 34.00 4417 405.5 True x
4/20/1983 10:15    3.53 82.00 4281 947.9 True x
4/21/1983 08:30    3.50 26.00 4223 296.5 True x
4/23/1983 08:00    3.43 10 26.00 4089 287.0 True x
4/24/1983 06:45    3.40 11 22.00 4031 239.4 True x
4/25/1983 08:30    3.34 12 14.00 3918 148.1 True x
4/26/1983 13:30    3.29 17 17.00 3825 175.6 True x
4/27/1983 18:00    3.20 19 11.00 3659 108.7 True x
4/28/1983 11:00    3.15 14 15.00 3569 144.5 True x
4/28/1983 15:12    3.20 17 25.00 3659 247.0 True x
4/29/1983 08:00    3.18 15 26.00 3623 254.3 True x
4/30/1983 08:20    3.58 14 156.00 4378 1,844.0 True x
4/30/1983 15:30    3.82 15 230.00 4857 3,017.0 True x
5/1/1983 07:00    3.75 14 42.00 4716 534.8 True x
5/1/1983 14:45    3.73 14 40.00 4675 504.9 True x
5/2/1983 08:35    5.02 14 1,368.00 7519 27,780.0 True x
5/2/1983 15:00    5.04 14 726.00 7567 14,840.0 True x
5/3/1983 08:30    4.65 12 237.00 6653 4,258.0 True x
5/4/1983 07:30    4.45 12 160.00 6201 2,679.0 True x
5/5/1983 08:00    4.37 12 38.00 6023 618.0 True x
5/6/1983 07:00    4.10 12 49.00 5439 719.6 True x
5/7/1983 08:00    3.93 13 76.00 5083 1,043.0 True x
5/8/1983 07:00    3.82 13 76.00 4857 996.7 True x
5/9/1983 08:00    3.78 13 54.00 4776 696.3 True x
5/10/1983 13:00    3.71 16 72.00 4635 901.1 True x
5/11/1983 12:45    3.69 17 63.00 4595 781.7 True x
5/11/1983 14:00    3.68 17 61.00 4575 753.6 True x
5/12/1983 12:30    3.66 18 43.00 4536 526.6 True x
5/13/1983 14:00    3.63 18 39.00 4476 471.4 True x
5/14/1983 13:00    3.63 17 41.00 4476 495.6 True x
5/15/1983 09:40    3.61 15 42.00 4437 503.1 True x
5/16/1983 08:00    3.54 14 18.00 4301 209.0 True x
5/16/1983 11:00    3.54 17 45.00 4301 522.5 True x
5/17/1983 10:30    3.47 17 32.00 4165 359.9 True x
5/18/1983 18:25    3.36 16 45.00 3956 480.6 True x
5/19/1983 16:00    3.35 16 25.00 3937 265.8 True x
5/20/1983 13:00    3.35 16 26.00 3937 276.4 True x
5/21/1983 20:00    3.33 17 32.00 3899 336.9 True x
5/22/1983 07:30    3.33 17 30.00 3899 315.9 True x
5/23/1983 09:30    3.25 18 36.00 3751 364.6 True x
5/24/1983 08:00    3.15 18 32.00 3569 308.3 True x
5/25/1983 15:00    3.06 19 41.00 3407 377.1 True x
5/26/1983 08:00    3.06 14 29.00 3407 266.8 True x
5/27/1983 09:35    3.02 15 34.00 3336 306.2 True x
5/28/1983 07:40    2.98 16 35.00 3261 308.2 True x
5/29/1983 08:00    2.92 16 30.00 3145 254.7 True x
5/30/1983 08:30    2.84 15 30.00 2993 242.5 True x
5/31/1983 13:10    2.82 15 33.00 2956 263.3 True x
6/1/1983 16:00    2.75 18 33.00 2826 251.8 True x
6/2/1983 14:00    2.73 18 32.00 2789 241.0 True x
6/3/1983 09:00    2.69 16 34.00 2716 249.4 True x
6/4/1983 08:00    2.67 17 38.00 2681 275.0 True x
6/5/1983 08:30    2.64 18 38.00 2627 269.6 True x
6/6/1983 08:30    2.57 16 46.00 2504 311.0 True x
6/7/1983 08:00    2.54 17 53.00 2452 350.9 True x
6/8/1983 15:45    2.48 22 47.00 2350 298.2 True x
6/9/1983 08:00    2.47 18 59.00 2333 371.6 True x
6/10/1983 09:00    2.47 21 49.00 2333 308.7 True x
6/11/1983 07:30    2.36 20 57.00 2151 331.0 True x
6/12/1983 06:30    2.34 20 58.00 2118 331.7 True x
6/13/1983 14:40    2.25 26 56.00 1975 298.6 True x
6/14/1983 10:00    2.20 25 62.00 1897 317.6 True x
6/15/1983 07:30    2.16 21 80.00 1837 396.7 True x
6/16/1983 08:00    2.13 21 55.00 1791 266.0 True x
6/17/1983 10:00    2.12 26 51.00 1776 244.6 True x
6/18/1983 08:00    2.10 23 55.00 1746 259.3 True x
6/19/1983 07:00    2.08 23 55.00 1717 255.0 True x
6/20/1983 12:30    2.03 25 59.00 1644 261.9 True x
6/21/1983 18:30    1.98 26 64.00 1572 271.7 True x
6/22/1983 08:30    1.95 25 61.00 1531 252.1 True x
6/23/1983 08:00    1.91 25 64.00 1475 254.9 True x
6/24/1983 08:00    1.88 25 69.00 1434 267.2 True x
6/25/1983 10:10    1.84 26 68.00 1381 253.6 True x
6/26/1983 08:00    1.81 25 61.00 1341 220.9 True x
6/27/1983 19:53    1.77 26 63.00 1290 219.4 True x
7/10/1983 07:00    2.78 22 40.00 2881 311.2 True x
7/11/1983 10:15    2.63 25 43.00 2609 303.0 True x
7/12/1983 09:00    2.51 25 43.00 2400 278.7 True x
7/13/1983 08:30    2.39 24 50.00 2200 297.0 True x
7/14/1983 08:45    2.30 24 51.00 2053 282.7 True x
7/15/1983 08:00    2.21 24 49.00 1913 253.0 True x
7/16/1983 08:00    2.10 25 59.00 1746 278.1 True x
7/17/1983 16:00    2.02 28 59.00 1629 259.5 True x
7/18/1983 09:15    1.96 26 51.00 1544 212.7 True x
7/19/1983 09:00    1.91 27 54.00 1475 215.0 True x
7/20/1983 09:30    1.91 27 60.00 1475 238.9 True x
7/21/1983 08:15    1.90 26 54.00 1461 213.0 True x
7/22/1983 08:30    1.86 26 52.00 1408 197.7 True x
7/23/1983 07:30    1.86 25 47.00 1408 178.7 True x
7/24/1983 06:45    1.85 25 49.00 1395 184.5 True x
7/25/1983 10:00    1.81 27 53.00 1341 191.9 True x
7/26/1983 14:20    1.76 28 49.00 1277 168.9 True x
7/27/1983 08:45    1.73 26 46.00 1238 153.8 True x
7/28/1983 12:00    1.71 26 49.00 1213 160.5 True x
7/29/1983 08:00    1.70 26 65.00 1200 210.6 True x
7/30/1983 19:00    1.70 28 60.00 1200 194.4 True x
7/31/1983 07:00    1.69 25 60.00 1188 192.4 True x
8/1/1983 17:00    1.78 28 53.00 1302 186.4 True x
8/8/1983 08:00    1.62 23 54.00 1102 160.7 True x
8/15/1983 07:10    1.46 22 59.00 917 146.2 True x
8/22/1983 19:00    1.48 26 57.00 940 144.7 True x
8/29/1983 08:30    1.36 26 68.00 809 148.7 True x
9/14/1983 09:45    1.26 19 67.00 707 128.0 True x
11/4/1983 16:00    1.37 10 11.00 820 24.0 True x
11/30/1983 15:00    2.00 32.00 1600 138.0 True x
12/13/1983 15:35    2.74 36.00 2807 273.0 True x
2/15/1984 15:40    3.45 52.00 4127 579.0 True x
3/6/1984 12:15    2.25 11.00 1974 59.0 True x
3/16/1984 14:20    2.78 352.00 2880 2,737.0 True x
3/22/1984 14:45    3.78 68.00 4776 877.0 True x
3/29/1984 12:45    3.59 34.00 4398 404.0 True x
4/4/1984 14:00    3.14 77.00 3550 738.0 True x
4/13/1984 12:00    2.73 11 72.00 2789 542.0 True x
4/19/1984 13:15    2.78 47.00 2880 365.0 True x
4/24/1984 09:30    3.16 54.00 3586 523.0 True x
4/30/1984 13:00    2.99 14 64.00 3280 567.0 True x
5/17/1984 13:00    2.30 17 68.00 2053 377.0 True x
5/23/1984 14:00    3.80 18 660.00 4816 8,582.0 True x
6/1/1984 13:45    3.43 18 34.00 4088 375.0 True x
6/6/1984 12:30    2.79 23 88.00 2899 689.0 True x
6/14/1984 14:15    2.33 25 128.00 2102 726.0 True x
6/21/1984 13:00    2.12 25 107.00 1775 513.0 True x
6/28/1984 13:45    2.48 23 67.00 2349 425.0 True x
7/6/1984 12:00    1.98 23 98.00 1572 416.0 True x
7/12/1984 14:00    1.89 26 152.00 1448 594.0 True x
7/27/1984 13:30    1.56 23 54.00 1031 150.0 True x
8/2/1984 14:00    1.46 26 79.00 917 196.0 True x
8/16/1984 14:00    1.32 27 115.00 767 238.0 True x
8/30/1984 12:45    1.17 27 53.00 620 89.0 True x
9/11/1984 13:30    1.23 23 76.00 677 139.0 True x
9/19/1984 14:15    1.26 20 75.00 707 143.0 True x
9/24/1984 11:30    1.25 22 81.00 697 152.0 True x
10/3/1984 13:15    1.25 15 51.00 697 96.0 True x
10/10/1984 13:30    1.40 18 61.00 852 140.0 True x
10/17/1984 12:45    1.50 17 71.00 962 184.0 True x
10/23/1984 13:30    1.69 12 44.00 1188 141.0 True x
10/26/1984 13:00    1.80 12 45.00 1328 161.0 True x
11/7/1984 12:45    1.90 42.00 1461 166.0 True x
11/14/1984 13:00    2.17 68.00 1851 340.0 True x
11/20/1984 12:15    2.02 82.00 1629 361.0 True x
11/27/1984 11:30    1.85 77.00 1394 290.0 True x
12/5/1984 11:30    2.05 21.00 1672 95.0 True x
12/11/1984 10:30    1.99 38.00 1586 163.0 True x
12/19/1984 10:30    2.30 25.00 2053 139.0 True x
1/2/1985 12:30    3.45 167.00 4127 1,861.0 True x
1/10/1985 10:00    3.15 36.00 3568 347.0 True x
1/16/1985 13:30    3.15 25.00 3568 241.0 True x
2/25/1985 09:30    4.65 268.00 6652 4,813.0 True x
3/4/1985 11:55    4.72 274.00 6813 5,040.0 True x
3/11/1985 09:30    4.25 51.00 5760 793.0 True x
3/18/1985 17:30    4.04 37.00 5312 531.0 True x
3/25/1985 17:30    3.61 33.00 4437 395.0 True x
4/1/1985 15:30    4.08 126.00 5396 1,836.0 True x
4/8/1985 17:40    3.98 40.00 5186 560.0 True x
4/15/1985 17:45    3.90 14 28.00 5021 380.0 True x
4/22/1985 17:30    3.53 20 23.00 4281 266.0 True x
4/29/1985 19:40    2.97 16 68.00 3241 595.0 True x
5/7/1985 18:00    2.42 20 72.00 2249 437.0 True x
5/13/1985 13:45    2.10 22 103.00 1746 486.0 True x
5/21/1985 13:30    2.20 18 100.00 1897 512.0 True x
5/31/1985 11:45    1.98 21 94.00 1572 399.0 True x
6/27/1985 12:30    1.62 26 115.00 1102 342.0 True x
9/23/1987 14:00    1.40 18 95.00 851 218.4 True x
9/26/1987 18:00    1.34 19 77.00 788 163.8 True x
10/4/1987 18:15    1.44 12 40.00 895 96.7 True x
10/11/1987 12:45    1.57 10 72.00 1042 202.7 True x
10/18/1987 18:00    1.52 12 41.00 984 109.0 True x
10/25/1987 07:11    1.54 34.00 1007 92.5 True x
11/1/1987 09:10    1.59 10 37.00 1066 106.5 True x
11/8/1987 13:15    1.51 10 20.00 973 52.6 True x
11/15/1987 09:20    1.47 19.00 928 47.6 True x
11/22/1987 13:48    1.43 14.00 884 33.4 True x
11/29/1987 09:18    1.80 37.00 1328 132.7 True x
12/6/1987 08:00    2.13 38.00 1790 183.7 True x
12/13/1987 08:20    2.25 153.00 1974 815.6 True x
12/20/1987 08:20    3.33 121.00 3899 1,274.0 True x
3/17/1988 11:50    2.22 42.00 1927 218.6 True x
3/19/1991 10:00    5.11 183.00 743 368.0 True x
2/11/1993 17:30    2.99 14.00 3280 125.0 True x
2/17/1993 16:30    2.60 62.00 2556 434.5 True x
2/22/1993 17:00    2.57 74.00 2504 501.7 True x
3/4/1993 17:00    3.18 80.00 3622 788.0 True x
3/9/1993 16:30    3.51 45.00 4242 517.9 True x
3/15/1993 16:00    3.46 71.00 4146 796.9 True x
3/22/1993 11:30    3.44 35.00 4108 393.8 True x
4/3/1993 11:30    4.65 67.00 6652 1,205.3 True x
4/6/1993 16:35    4.22 31.00 5696 484.8 True x
4/20/1993 07:00    4.00 12 97.00 5228 1,383.0 True x
4/26/1993 07:30    3.82 12 37.00 4857 490.3 True x
5/3/1993 07:40    6.63 16 13.00 11850 432.6 True x
5/12/1993 06:45    3.20 19 40.00 3659 397.3 True x
5/20/1993 07:30    2.54 14 87.00 2452 582.2 True x
5/25/1993 07:30    2.41 17 80.00 2232 483.4 True x
6/3/1993 07:40    2.51 15 62.00 2400 402.0 True x
6/9/1993 07:15    4.35 19 401.00 5979 6,477.5 True x
6/10/1993 13:30    4.33 21 209.00 5935 3,358.8 True x
6/15/1993 07:40    4.52 20 81.00 6357 1,402.6 True x
6/23/1993 07:30    4.15 21 44.00 5545 670.4 True x
7/7/1993 07:30    3.93 23 62.00 5083 853.8 True x
7/15/1993 07:30    2.83 22 78.00 2974 632.4 True x
7/20/1993 07:30    2.46 23 103.00 2315 649.1 True x
7/29/1993 07:30    2.15 24 98.00 1821 483.7 True x
8/4/1993 07:30    1.71 21 126.00 1213 413.8 True x
8/13/1993 10:10    1.71 23 94.00 1213 311.1 True x
8/19/1993 16:30    1.65 27 111.00 1139 342.2 True x
8/27/1993 08:00    1.55 26 110.00 1019 303.3 True x
9/2/1993 08:00    2.61 21 52.00 2574 364.7 True x
9/9/1993 07:45    3.51 22 40.00 4242 460.2 True x
9/17/1993 08:00    3.57 16 53.00 4359 631.8 True x
9/28/1993 08:30    3.70 13 67.00 4615 836.2 True x
10/7/1993 17:30    2.57 16 93.00 2504 634.5 True x
10/15/1993 13:30    2.58 12 83.00 2521 569.3 True x
10/18/1993 17:00    4.91 13 91.00 7257 1,793.2 True x
11/5/1993 08:00    3.41 73.00 4050 801.4 True x
11/14/1993 11:45    2.84 87.00 2992 706.5 True x
11/19/1993 16:00    2.27 70.00 2006 382.6 True x
11/28/1993 15:00    3.60 9.00 4417 109.2 True x
12/5/1993 12:40    3.53 36.00 4281 418.4 True x
12/10/1993 11:00    3.33 79.00 3899 833.4 True x
12/20/1993 10:00    2.93 67.00 3164 578.6 True x
12/25/1993 16:00    3.01  97.00 3318 870.6 True x
1/1/1994 16:25    2.58 114.00 2521 776.5 True x
1/9/1994 13:45    2.70 102.00 2734 755.6 True x
3/3/1994 16:30    2.90 43.00 3106 365.1 True x
3/14/1994 09:45    3.61 65.00 4437 787.4 True x
4/4/1994 08:00    2.55 77.00 2469 513.8 True x
4/13/1994 16:15    3.10 10 34.00 3478 327.5 True x
4/19/1994 07:00    3.46 14 16.00 4146 188.3 True x
5/9/1994 06:45    2.57 13 36.00 2504 244.2 True x
5/12/1994 13:00    2.45 17 36.00 2299 227.2 True x
5/15/1994 09:30    2.34 16 91.00 2118 520.4 True x
5/24/1994 08:15    1.99 20 114.00 1586 488.9 True x
6/8/1994 16:00    1.66 20 121.00 1151 378.1 True x
6/14/1994 17:00    2.89 25 935.00 3087 7,800.8 True x
6/22/1994 07:30    2.67 25 68.00 2680 492.3 True x
6/28/1994 08:00    2.45 20 42.00 2299 266.0 True x
7/6/1994 07:50    2.78 23 92.00 2880 717.0 True x
7/13/1994 07:45    2.72 21 43.00 2770 322.9 True x
7/20/1994 07:45    2.44 22 60.00 2282 375.8 True x
8/1/1994 07:50    1.86 21 125.00 1407 476.8 True x
8/3/1994 07:50    1.88 21 98.00 1434 381.9 True x
8/12/1994 07:25    1.80 18 115.00 1328 412.9 True x
8/22/1994 08:00    1.88 20 83.00 1434 324.8 True x
9/9/1994 08:15    1.58 19 105.00 1055 301.9 True x
9/16/1994 15:35    1.49 23 105.00 950 270.3 True x
9/20/1994 15:20    1.55 16 101.00 1019 279.8 True x
9/27/1994 15:00    1.60 15 109.00 1078 318.8 True x
10/8/1994 16:30    1.42 16 97.00 944 249.7 True x
11/8/1994 11:45    2.48 12 37.00 2702 273.0 True x
11/28/1994 16:30    2.69 53.00 3120 448.6 True x
12/9/1994 08:10    3.11 49.00 3933 524.3 True x
12/21/1994 08:15    2.92 23.00 3568 227.7 True x
1/2/1995 16:15    2.49 66.00 2721 485.7 True x
1/7/1995 14:30    4.84 98.00 7706 2,051.7 True x
1/14/1995 16:35    4.81 153.00 7634 3,168.4 True x
1/21/1995 10:15    4.64 18.00 7231 351.5 True x
3/8/1995 16:30    3.40 78.00 4500 952.4 True x
3/13/1995 14:30    3.39 42.00 4480 515.5 True x
4/13/1995 08:00    4.72  52.00 7420 1,045.0 True x
4/19/1995 16:40    3.91  27.00 5580 420.5 True x
4/24/1995 09:30    3.54 11 77.00 4793 1,008.3 True x
5/3/1995 19:40    2.79 12 90.00 3311 805.1 True x
5/9/1995 08:25    2.54 15 95.00 2819 728.5 True x
5/20/1995 15:00    2.63 17 80.00 2999 654.1 True x
5/25/1995 20:30    3.58 14 33.00 4877 439.2 True x
5/31/1995 17:00    3.61 19 20.00 4941 277.1 True x
6/2/1995 13:30    3.40 19 71.00 4500 866.8 True x
6/10/1995 17:45    2.61 21 81.00 2960 654.1 True x
6/18/1995 18:45    2.10 25 80.00 2000 435.0 True x
6/27/1995 18:25    1.83 23 94.00 1536 390.8 True x
7/4/1995 13:45    2.52 21 42.00 2779 318.1 True x
7/11/1995 10:00    1.96 24 59.00 1751 281.7 True x
7/23/1995 09:00    1.65 23 99.00 1259 338.7 True x
8/3/1995 19:00    2.91 23 381.00 3549 3,656.4 True x
8/9/1995 17:15    2.82 24 68.00 3370 618.7 True x
8/13/1995 13:00    2.31 28 88.00 2379 569.3 True x
8/26/1995 09:20    1.85 25 120.00 1568 510.4 True x
9/1/1995 18:20    1.57 24 115.00 1145 357.5 True x
9/10/1995 13:15    1.57 21 126.00 1145 391.5 True x
10/6/1995 08:05    1.32 15 94.00 821 210.5 True x
10/18/1995 08:10    1.22 12 110.00 706 210.1 True x
11/18/1995 08:00    2.85 35 32.00 3429 303.3 True x
1/18/1996 10:00    1.76  92.00 1425 356.3 True x
3/18/1996 08:15    1.94  82.00 1717 384.1 True x
4/29/1996 15:22    3.24  45.00 4187 516.5 True x
5/30/1996 16:00    3.68  133.00 5087 1,828.6 True x
6/22/1996 08:10    3.99  77.00 5758 1,209.8 True x
10/22/1996 18:39    2.10 13 66.00 2000 359.7 True x
10/28/1996 09:44    2.99 13 96.00 3701 962.2 True x
11/6/1996 15:51    2.92 10 91.00 3568 879.7 True x
11/13/1996 17:00    2.62 41.00 2980 337.5 True x
11/20/1996 14:55    2.46 99.00 2663 716.1 True x
11/27/1996 14:32    2.52 88.00 2779 662.1 True x
12/3/1996 14:26    2.81 84.00 3350 768.4 True x
12/11/1996 13:01    3.46 44.00 4625 553.8 True x
8/12/1997 14:24    2.43 20 58.00 2606 410.5 True x
11/12/1997 16:32    1.81 52.00 1504 211.7 True x
11/12/1997 16:37    1.81 86.00 1504 350.6 True x
11/19/1997 16:21    1.79 68.00 1472 272.2 True x
11/26/1997 19:00    1.89 72.00 1633 319.6 True x
12/4/1997 16:20    2.42 44.00 2588 308.4 True x
12/11/1997 17:45    2.18 41.00 2143 241.7 True x
12/21/1997 13:20    2.13 67.00 2053 375.3 True x
1/11/1998 13:05    4.59 56.00 7114 1,086.0 True x
1/18/1998 12:25    4.10 34.00 5999 556.5 True x
1/25/1998 10:50    3.45 25.00 4604 311.2 True x
2/4/1998 18:00    3.67 16.00 5066 232.1 True x
2/8/1998 13:05    2.90 18.00 3530 178.8 True x
2/15/1998 15:55    3.10 21.00 3913 229.5 True x
2/22/1998 18:30    3.13 27.00 3972 298.6 True x
3/1/1998 10:30    2.83 21.00 3390 195.1 True x
3/10/1998 18:30    3.58 45.00 4877 599.6 True x
3/18/1998 18:15    5.61 156.00 9630 4,066.7 True x
3/25/1998 18:40    4.54 10 76.00 6997 1,436.8 True x
4/7/1998 17:00    3.91 45.00 5580 684.6 True x
4/17/1998 19:30    3.95 14 31.00 5669 477.7 True x
4/27/1998 19:00    3.48 14 32.00 4666 410.0 True x
5/4/1998 17:40    4.05 17 128.00 5889 2,046.8 True x
5/13/1998 18:00    3.86 24 59.00 5471 885.0 True x
5/22/1998 18:10    2.49 21 55.00 2721 407.6 True x
6/2/1998 18:00    2.18 21 47.00 2143 273.9 True x
6/12/1998 19:45    2.86 22 45.00 3449 425.7 True x
6/22/1998 18:30    2.94 23 41.00 3606 401.3 True x
6/30/1998 19:15    2.34 25 129.00 2435 849.9 True x
7/8/1998 20:40    2.95 25 47.00 3625 464.4 True x
7/18/1998 19:00    1.87 26 46.00 1600 200.0 True x
7/27/1998 18:45    2.79 25 86.00 3311 769.4 True x
8/5/1998 17:30    3.14 25 92.00 3992 998.7 True x
8/15/1998 09:00    2.92 23 77.00 3568 742.1 True x
9/11/1998 17:00    1.47 23 72.00 1009 198.6 True x
9/18/1998 19:00    1.37 22 33.00 882 80.8 True x
9/25/1998 17:00    1.35 22 54.00 857 127.1 True x
10/2/1998 16:30    1.38 19 25.00 894 61.7 True x
10/9/1998 18:45    1.31 18 29.00 809 64.6 True x
10/16/1998 19:00    1.23 16 19.00 717 36.9 True x
10/23/1998 19:00    1.29 14 22.00 786 48.5 True x
10/30/1998 17:30    1.37 12 31.00 882 74.1 True x
11/6/1998 18:00    1.45 76.00 983 204.1 True x
11/13/1998 18:00    1.37 21.00 882 50.3 True x
11/23/1998 19:00    1.46 39.00 996 106.2 True x
12/1/1998 17:00    1.49 34.00 1036 97.7 True x
12/11/1998 16:30    1.53 30.00 1090 89.7 True x
12/18/1998 18:30    1.58 14.00 1159 45.9 True x
12/28/1998 17:45    2.22 23.00 2215 142.6 True x
1/26/1999 16:30    4.24 16.00 6311 278.5 True x
2/14/1999 17:00    3.11 20.00 3933 215.5 True x
2/20/1999 16:30    3.67 15 45.00 5066 622.9 True x
2/27/1999 16:00    3.69 15 56.00 5108 778.4 True x
3/6/1999 17:00    2.79 14 27.00 3311 248.3 True x
3/13/1999 17:30    2.77 15 52.00 3273 463.3 True x
3/20/1999 16:15    2.85 16 27.00 3429 251.5 True x
3/27/1999 18:00    2.35 18 56.00 2454 374.1 True x
4/3/1999 16:45    2.46 20 45.00 2663 328.9 True x
4/10/1999 08:00    2.37 21 50.00 2492 339.6 True x
4/17/1999 15:45    3.74 22 47.00 5213 663.2 True x
4/24/1999 17:15    4.86 22 34.00 7754 715.6 True x
5/1/1999 16:45    4.45 22 40.00 6789 747.7 True x
5/8/1999 17:00    3.62 24 38.00 4961 516.7 True x
5/15/1999 18:45    3.12 25 42.00 3952 457.7 True x
5/22/1999 18:15    2.48 25 46.00 2702 339.9 True x
5/29/1999 19:00    2.27 26 33.00 2305 206.2 True x
6/5/1999 18:30    2.35 26 44.00 2454 294.6 True x
6/12/1999 18:15    3.03 26 37.00 3778 387.4 True x
6/19/1999 17:45    2.17 26 61.00 2125 351.9 True x
6/26/1999 18:00    1.82 26 41.00 1520 169.4 True x
7/12/1999 18:00    1.79 26 119.00 1472 475.7 True x
7/19/1999 16:00    1.46 28 106.00 996 286.8 True x
7/29/1999 15:00    1.35 31 91.00 857 212.2 True x
8/10/1999 14:30    1.23 26 84.00 717 163.4 True x
8/23/1999 19:00    1.15 24 65.00 630 111.6 True x
8/31/1999 15:00    1.20 23 82.00 684 152.8 True x
9/8/1999 15:00    1.05 21 78.00 530 111.8 True x
9/15/1999 09:30    0.94 18 58.00 428 67.8 True x
10/11/1999 15:00    1.18 17 14.00 662 26.0 True x
10/18/1999 16:00    1.17 12 30.00 652 53.4 True x
7/6/2000 16:54    2.83 26 47.00 3390 432.8 True x
7/6/2000 17:59    2.83  56.00 3390 513.7 True x
7/6/2000 18:51    2.81 25 131.00 3350 1,186.5 True x
7/11/2000 18:41    2.70 25 111.00 3140 945.2 True x
7/18/2000 18:00    2.03 24 124.00 1873 629.5 True x
7/25/2000 20:00    1.59 23 132.00 1173 418.5 True x
8/1/2000 18:00    1.72 24 104.00 1364 383.3 True x
8/8/2000 17:00    1.90 26 105.00 1650 468.6 True x
8/17/2000 19:00    1.27 25 89.00 762 184.3 True x
8/22/2000 18:15    1.33 24 101.00 833 229.1 True x
8/29/2000 19:30    1.23 26 93.00 717 181.1 True x
9/5/2000 16:00    1.05 26 91.00 530 130.2 True x
9/12/2000 15:45    1.25 24 88.00 740 175.9 True x
9/19/2000 19:00    1.41 21 57.00 932 145.1 True x
9/26/2000 16:10    1.39 18 68.00 906 167.3 True x
10/3/2000 16:00    1.25 21 66.00 740 133.4 True x
10/10/2000 18:30    1.57 11 61.00 1145 190.5 True x
10/17/2000 17:30    1.42 16 94.00 944 241.0 True x
10/24/2000 16:30    1.36 16 99.00 869 233.1 True x
10/31/2000 18:00    1.33 14 96.00 833 217.7 True x
11/7/2000 18:30    1.27 10 95.00 762 196.2 True x
11/14/2000 17:00    1.62 88.00 1216 292.1 True x
11/21/2000 17:30    1.57 91.00 1145 282.3 True x
11/28/2000 15:30    1.55 99.00 1117 298.6 True x
12/5/2000 15:40    1.67 94.00 1289 328.5 True x
12/12/2000 17:30    1.61 94.00 1202 306.3 True x
2/1/2001 19:40    2.33 93.00 2416 611.1 True x
2/6/2001 21:00    2.44 63.00 2625 451.3 True x
2/13/2001 16:00    4.03 80.00 5846 1,272.2 True x
2/20/2001 15:40    4.02 84.00 5824 1,324.8 True x
2/27/2001 17:40    4.70 124.00 7373 2,483.0 True x
3/6/2001 15:30    3.96 60.00 5691 933.4 True x
3/13/2001 17:15    3.26 49.00 4226 567.6 True x
3/20/2001 17:00    3.00 46.00 3720 466.9 True x
3/27/2001 15:45    2.56 68.00 2859 531.1 True x
4/3/2001 16:15    2.30 13 61.00 2360 392.4 True x
4/10/2001 19:00    2.64 16 135.00 3019 1,104.4 True x
4/17/2001 19:00    2.43 11 95.00 2606 672.2 True x
4/24/2001 18:30    2.57 16 153.00 2879 1,192.3 True x
5/1/2001 17:00    2.39 20 147.00 2531 1,005.5 True x
5/8/2001 16:45    2.08 18 162.00 1963 861.6 True x
5/15/2001 15:30    2.11 23 192.00 2018 1,049.6 True x
5/22/2001 16:15    2.00 21 153.00 1820 755.1 True x
5/29/2001 14:20    2.39 16 128.00 2531 877.0 True x
6/5/2001 16:15    2.60 15 118.00 2940 944.2 True x
6/12/2001 20:15    2.79 23 118.00 3311 1,061.7 True x
6/19/2001 20:00    2.44 23 98.00 2625 695.6 True x
6/26/2001 19:00    2.01 25 186.00 1838 925.4 True x
7/3/2001 15:00    1.72 25 150.00 1364 555.5 True x
7/10/2001 16:00    2.13 27 68.00 2053 377.2 True x
7/17/2001 16:30    1.46 28 104.00 996 280.3 True x
7/24/2001 12:00    1.67 28 83.00 1289 290.4 True x
7/31/2001 19:30    1.76 29 50.00 1425 195.5 True x
8/7/2001 19:15    1.26 29 83.00 751 170.0 True x
8/14/2001 19:00    1.10 25 60.00 579 95.2 True x
8/21/2001 20:00    1.31 24 64.00 809 142.1 True x
8/28/2001 20:00    1.67 24 44.00 1289 156.1 True x
9/4/2001 19:30    1.30 24 83.00 797 180.7 True x
9/11/2001 19:30    1.29 23 33.00 786 70.9 True x
9/18/2001 16:30    1.23 20 63.00 717 123.2 True x
9/25/2001 17:00    1.32 16 60.00 821 134.7 True x
10/2/2001 16:30    1.47 15 42.00 1009 116.3 True x
10/9/2001 18:15    1.56 14 38.00 1131 117.0 True x
10/16/2001 18:00    3.08 12 63.00 3874 660.1 True x
10/19/2001 09:11    3.48 11 65.00 4666 819.2 True x
10/19/2001 09:52    3.48  59.00 4666 749.5 True x
10/23/2001 19:00    3.51 15 71.00 4729 914.3 True x
10/30/2001 17:15    3.38 12 36.00 4460 434.5 True x
11/6/2001 18:00    3.06 12 81.00 3836 843.7 True x
11/13/2001 20:30    2.68 10 65.00 3100 548.6 True x
11/20/2001 18:45    2.36 68.00 2473 458.8 True x
11/26/2001 16:00    2.22 70.00 2215 424.4 True x
12/3/2001 19:00    2.67 26.00 3079 217.2 True x
12/10/2001 18:00    2.46 69.00 2663 498.7 True x
12/17/2001 18:30    2.61 43.00 2960 344.9 True x
12/24/2001 14:30    2.76 39.00 3253 344.4 True x
12/31/2001 12:00    2.61 164.00 2960 1,315.4 True x
1/7/2002 15:30    3.77 87.00 5276 1,249.4 True x
1/14/2002 15:30    2.10 73.00 2000 395.6 True x
1/21/2002 15:30    1.97 70.00 1768 335.2 True x
1/28/2002 15:30    1.96 80.00 1751 381.8 True x
2/4/2002 21:30    3.79 71.00 5319 1,030.5 True x
2/11/2002 15:30    3.55 55.00 4814 719.4 True x
2/18/2002 15:30    2.76 42.00 3253 376.0 True x
2/25/2002 15:30    3.06 19.00 3836 206.3 True x
3/4/2002 18:00    3.07 42.00 3855 443.7 True x
3/11/2002 20:00    4.17 45.00 6155 757.2 True x
3/18/2002 17:30    3.65 19.00 5024 262.8 True x
3/25/2002 15:30    3.02 44.00 3758 448.9 True x
4/1/2002 16:00    3.21 19.00 4129 222.3 True x
4/4/2002 08:17    3.82 14.00 5383 211.4 True x
4/4/2002 09:04    3.82  15.00 5383 219.1 True x
4/8/2002 18:00    3.68 25.00 5087 352.3 True x
4/15/2002 17:15    3.75 20 84.00 5234 1,191.0 True x
4/22/2002 18:00    3.17 11 248.00 4051 2,714.3 True x
4/29/2002 18:30    3.33 12 75.00 4362 894.1 True x
5/6/2002 16:30    2.97 16 111.00 3663 1,099.0 True x
5/13/2002 20:00    5.55 12 126.00 9475 3,239.4 True x
5/20/2002 20:30    4.32 10 54.00 6492 957.5 True x
5/27/2002 20:15    3.67 18 56.00 5066 766.4 True x
6/3/2002 20:00    2.96 23 57.00 3644 567.0 True x
6/10/2002 20:00    2.56 22 65.00 2859 504.7 True x
6/17/2002 20:15    2.26 24 102.00 2287 635.5 True x
6/24/2002 08:15    1.91 25 90.00 1667 406.0 True x
7/1/2002 09:00    1.70 28 110.00 1333 398.7 True x
7/8/2002 14:30    1.56 30 86.00 1131 263.9 True x
7/15/2002 20:00    1.38 28 55.00 894 133.9 True x
7/22/2002 14:00    1.26 30 56.00 751 114.8 True x
7/29/2002 19:00    1.52 26 116.00 1076 337.8 True x
8/5/2002 20:00    1.45 29 50.00 983 134.3 True x
8/12/2002 20:00    1.08 27 79.00 559 120.1 True x
8/19/2002 19:15    1.30 23 77.00 797 166.3 True x
8/26/2002 19:30    1.30 27 80.00 797 172.8 True x
9/2/2002 19:00    0.99 25 48.00 473 61.5 True x
9/9/2002 16:30    0.93 28 23.00 420 26.5 True x
9/16/2002 17:00    0.88 24 46.00 377 47.8 True x
9/23/2002 16:00    1.18 19 34.00 662 62.0 True x
9/30/2002 18:15    1.12 22 45.00 599 73.2 True x
10/3/2002 08:27    1.12 20 25.00 599 41.5 True x
10/3/2002 09:16    1.12  24.00 599 39.2 True x
10/7/2002 18:15    1.14 16 83.00 620 140.4 True x
10/14/2002 18:20    1.16 12 31.00 641 54.4 True x
10/21/2002 17:00    1.15 11 76.00 630 131.0 True x
10/28/2002 16:00    1.13 10 79.00 610 131.7 True x
11/4/2002 16:00    1.08 75.00 559 114.6 True x
11/11/2002 12:00    1.23 52.00 717 102.5 True x
11/18/2002 16:00    1.26 63.00 751 128.8 True x
11/25/2002 16:00    1.26 80.00 751 163.7 True x
12/2/2002 22:00    1.36 72.00 869 170.9 True x
12/9/2002 16:00    1.37 87.00 882 209.5 True x
12/16/2002 16:00    1.25 82.00 740 165.6 True x
12/23/2002 14:00    1.51 49.00 1063 141.8 True x
12/30/2002 10:00    1.56 65.00 1131 201.2 True x
1/6/2003 16:00    1.52 75.00 1076 219.5 True x
1/13/2003 16:00    1.35 85.00 857 198.7 True x
1/20/2003 16:00    2.78 66.00 3292 593.1 True x
2/3/2003 16:00    2.60 15.00 2940 121.3 True x
2/10/2003 17:00    2.38 52.00 2511 358.8 True x
2/17/2003 17:20    2.46 71.00 2663 514.4 True x
2/24/2003 17:00    2.48 3.00 2702 22.7 True x
3/3/2003 16:00    2.35 41.00 2454 271.9 True x
3/10/2003 16:30    1.96 84.00 1751 400.9 True x
3/17/2003 16:00    1.85 10 40.00 1568 172.5 True x
3/24/2003 16:00    1.85 11 33.00 1568 140.1 True x
3/31/2003 16:15    1.62 12 47.00 1216 156.7 True x
4/7/2003 17:15    2.20 15 38.00 2180 226.5 True x
4/14/2003 16:00    1.97 16 35.00 1768 170.1 True x
4/21/2003 18:30    1.81 13 52.00 1504 212.6 True x
4/28/2003 17:30    1.63 17 48.00 1230 161.3 True x
5/5/2003 16:00    2.11 14 48.00 2018 262.4 True x
5/8/2003 08:07    2.76 17 54.00 3253 476.4 True x
5/8/2003 08:51    2.76  50.00 3253 443.8 True x
5/12/2003 19:00    3.84 16 98.00 5427 1,444.9 True x
5/19/2003 17:00    3.24 19 96.00 4187 1,090.0 True x
5/26/2003 19:00    2.28 18 120.00 2323 755.3 True x
6/2/2003 19:00    2.22 17 95.00 2215 571.3 True x
6/9/2003 16:45    2.01 22 104.00 1838 517.4 True x
6/16/2003 18:00    1.89 20 116.00 1633 512.8 True x
6/23/2003 08:00    1.66 21 112.00 1274 388.1 True x
6/30/2003 08:00    1.42 24 120.00 944 308.4 True x
7/7/2003 18:00    3.31 26 195.00 4323 2,281.3 True x
7/14/2003 18:00    3.56 25 83.00 4835 1,087.7 True x
7/21/2003 18:00    4.40 22 461.00 6674 8,314.3 True x
7/28/2003 18:30    3.17 21 49.00 4051 539.3 True x
8/4/2003 15:00    2.58 25 98.00 2900 769.5 True x
8/11/2003 18:30    1.79 24 60.00 1472 239.9 True x
8/18/2003 19:30    1.43 27 64.00 957 166.5 True x
8/25/2003 15:30    1.32 26 53.00 821 117.7 True x
9/1/2003 16:00    1.71 21 51.00 1349 188.7 True x
9/8/2003 17:30    1.47 24 31.00 1009 84.9 True x
9/15/2003 19:00    1.40 22 30.00 919 76.6 True x
9/22/2003 20:00    1.31 19 23.00 809 50.7 True x
9/29/2003 19:00    1.39 14 20.00 906 50.8 True x
10/5/2003 19:30    1.36 12 13.00 869 31.9 True x
10/12/2003 10:00    1.32 14 13.00 821 29.6 True x
10/19/2003 18:15    1.54 14 13.00 1104 38.9 True x
10/23/2003 08:28    1.48 11 12.00 1023 34.0 True x
10/23/2003 09:26    1.48  13.00 1023 36.1 True x
10/26/2003 17:00    1.54 11 103.00 1104 309.0 True x
11/2/2003 09:00    1.62 12 83.00 1216 274.3 True x
11/9/2003 16:00    1.84 62.00 1552 261.8 True x
11/16/2003 17:00    1.71 88.00 1349 323.8 True x
11/23/2003 12:00    2.60 13 76.00 2940 605.1 True x
11/30/2003 17:00    2.94 15 57.00 3606 557.2 True x
12/7/2003 15:00    2.46 82.00 2663 593.5 True x
12/14/2003 09:00    2.66 35.00 3059 290.3 True x
12/21/2003 12:00    2.61 62.00 2960 502.1 True x
12/28/2003 15:00    2.79 40.00 3311 360.1 True x
1/4/2004 09:30    2.72 32.00 3178 275.0 True x
1/11/2004 18:30    2.36 42.00 2473 283.7 True x
1/18/2004 17:00    2.17 40.00 2125 230.9 True x
1/25/2004 16:00    4.17 6.00 6155 109.9 True x
2/1/2004 16:30    3.99 50.00 5758 777.6 True x
2/8/2004 12:30    3.57 56.00 4856 734.5 True x
2/15/2004 17:00    2.89 40.00 3510 387.3 True x
2/22/2004 14:30    3.43 22.00 4562 276.1 True x
2/29/2004 17:30    2.42 21.00 2588 152.1 True x
3/7/2004 12:00    3.61 115.00 4941 1,534.5 True x
3/14/2004 12:30    2.87 31.00 3470 296.4 True x
3/21/2004 10:00    2.24 33.00 2251 200.6 True x
3/28/2004 11:00    2.63 15 39.00 2999 321.4 True x
4/4/2004 17:30    2.48 11 29.00 2702 212.3 True x
4/11/2004 18:00    2.12 36.00 2035 201.3 True x
4/18/2004 09:00    1.98 18 35.00 1785 171.6 True x
4/25/2004 09:00    1.90 15 38.00 1650 172.8 True x
5/2/2004 19:00    1.87 15 36.00 1600 158.4 True x
5/9/2004 19:00    1.80 23 36.00 1488 146.8 True x
5/16/2004 20:00    2.16 19 62.00 2107 358.0 True x
5/20/2004 08:55    2.21 19 45.00 2198 268.2 True x
5/20/2004 09:42    2.21 19 45.00 2198 270.4 True x
5/23/2004 20:00    2.02 20 122.00 1855 613.6 True x
5/30/2004 07:00    1.98 20 176.00 1785 851.2 True x
6/6/2004 11:20    3.25 20 94.00 4206 1,069.1 True x
6/6/2004 19:00    2.51 23 127.00 2760 952.4 True x
6/13/2004 18:00    4.31 24 199.00 6469 3,486.1 True x
6/20/2004 20:00    3.33 21 80.00 4362 953.0 True x
6/27/2004 20:00    2.14 18 91.00 2071 510.7 True x
7/4/2004 19:00    1.74 27 127.00 1394 479.5 True x
7/11/2004 20:00    1.62 27 84.00 1216 276.7 True x
7/18/2004 21:00    1.45 25 90.00 983 241.2 True x
7/25/2004 21:00    2.02 22 56.00 1855 281.3 True x
8/1/2004 21:30    1.42 24 97.00 944 249.3 True x
8/8/2004 19:00    1.42 20 108.00 944 277.2 True x
8/15/2004 20:00    1.34 22 81.00 845 185.2 True x
8/22/2004 20:30    2.03 21 78.00 1873 399.2 True x
8/29/2004 18:45    3.14 23 184.00 3992 1,991.9 True x
9/5/2004 19:15    2.85 20 65.00 3429 603.5 True x
9/12/2004 18:15    2.14 21 80.00 2071 447.5 True x
9/19/2004 19:30    1.88 20 80.00 1617 350.1 True x
9/26/2004 18:15    1.66 19 64.00 1274 220.5 True x
10/3/2004 19:00    1.43 13 48.00 957 125.3 True x
10/10/2004 18:00    1.57 14 62.00 1145 193.6 True x
10/17/2004 17:30    1.63 13 52.00 1230 173.3 True x
10/21/2004 08:11    1.54 47.00 1104 142.8 True x
10/21/2004 09:05    1.54  56.00 1104 169.3 True x
10/24/2004 17:00    1.71 15 68.00 1349 251.1 True x
10/31/2004 12:00    1.59 15 64.00 1173 202.8 True x
11/7/2004 13:30    2.34 37.00 2435 247.0 True x
11/14/2004 07:00    1.96 44.00 1751 211.2 True x
11/21/2004 17:00    2.12 57.00 2035 317.3 True x
11/28/2004 12:00    3.28 72.00 4265 834.7 True x
12/5/2004 19:00    3.49 80.00 4687 1,013.2 True x
12/12/2004 07:00    3.71 327.00 5150 4,553.6 True x
12/19/2004 08:00    3.15 180.00 4011 1,951.8 True x
12/26/2004 16:00    3.11 167.00 3933 1,778.6 True x
1/2/2005 14:00    3.82 265.00 5383 3,859.8 True x
1/9/2005 11:30    3.68 78.00 5087 1,076.0 True x
1/16/2005 08:00    5.36 551.00 8989 13,391.4 True x
1/23/2005 16:00    4.18 175.00 6177 2,933.7 True x
1/30/2005 10:00    3.65 307.00 5024 4,175.5 True x
2/6/2005 09:00    3.13 146.00 3972 1,567.9 True x
2/13/2005 09:00    3.60 169.00 4920 2,249.0 True x
2/20/2005 09:00    4.20 262.00 6222 4,408.9 True x
2/27/2005 10:00    4.01 180.00 5802 2,824.4 True x
3/6/2005 14:00    3.46 163.00 4625 2,046.2 True x
3/13/2005 14:00    3.26 161.00 4226 1,845.1 True x
3/20/2005 10:00    3.07 151.00 3855 1,581.9 True x
3/27/2005 11:15    2.73 44.00 3197 388.2 True x
4/3/2005 17:30    2.70 14 358.00 3140 3,036.1 True x
4/10/2005 18:00    2.53 13 84.00 2799 641.7 True x
4/17/2005 18:00    2.41 15 69.00 2569 478.6 True x
4/24/2005 18:15    2.40 11 51.00 2550 356.9 True x
5/1/2005 16:00    2.20 11 44.00 2180 263.0 True x
5/5/2005 08:19    2.06 10 62.00 1927 324.6 True x
5/5/2005 08:59    2.06  50.00 1927 261.5 True x
5/8/2005 19:00    2.00 24 91.00 1820 447.3 True x
5/15/2005 20:00    1.87 16 90.00 1600 390.6 True x
5/22/2005 07:00    1.96 18 113.00 1751 535.2 True x
5/29/2005 19:20    1.66 17 110.00 1274 381.5 True x
6/5/2005 20:30    2.03 25 143.00 1873 724.2 True x
6/12/2005 20:00    1.72 25 111.00 1364 411.2 True x
6/19/2005 21:00    1.59 24 107.00 1173 340.1 True x
6/26/2005 20:30    1.18 29 44.00 662 79.4 True x
7/3/2005 20:00    1.10 26 55.00 579 86.5 True x
7/10/2005 20:00    1.04 28 35.00 520 50.3 True x
7/17/2005 19:15    1.12 29 27.00 599 45.1 True x
7/24/2005 22:00    1.32 29 52.00 821 117.1 True x
7/31/2005 19:00    1.23 27 24.00 717 47.8 True x
8/7/2005 18:30    1.18 29 51.00 662 91.7 True x
8/15/2005 17:30    2.13 24 138.00 2053 766.6 True x
8/22/2005 19:30    1.70 24 70.00 1333 255.4 True x
8/28/2005 19:00    1.31 22 60.00 809 132.6 True x
9/3/2005 20:00    1.13 24 64.00 610 106.4 True x
9/11/2005 19:00    1.02 23 25.00 501 34.0 True x
9/18/2005 20:00    1.28 19 50.00 774 105.1 True x
9/25/2005 18:30    1.23 20 60.00 717 118.1 True x
10/2/2005 20:00    1.45 22 58.00 983 154.7 True x
10/6/2005 07:26    1.47 19 43.00 1010 119.9 True x
10/6/2005 08:08    1.47  47.00 1010 129.5 True x
10/9/2005 18:00    1.31 15 101.00 810 223.0 True x
10/16/2005 18:30    1.24 14 89.00 729 176.5 True x
10/23/2005 16:00    1.18 11 154.00 663 276.5 True x
10/30/2005 13:30    1.21 11 115.00 695 216.4 True x
11/6/2005 16:30    1.34 12 96.00 845 219.2 True x
11/13/2005 17:00    1.35 87.00 858 201.8 True x
11/20/2005 17:00    1.26 80.00 751 164.0 True x
11/27/2005 08:00    1.34 84.00 845 191.9 True x
12/5/2005 08:00    1.80 82.00 1490 330.4 True x
12/11/2005 16:00    2.78 82.00 3290 736.6 True x
12/18/2005 09:00    2.67 93.00 3080 776.3 True x
12/25/2005 12:00    2.73 90.00 3200 785.5 True x
1/1/2006 20:00    2.17 87.00 2130 502.1 True x
1/8/2006 08:00    2.05 72.00 1910 374.5 True x
1/15/2006 18:30    2.06 64.00 1930 335.1 True x
1/22/2006 17:00    2.48 116.00 2700 849.3 True x
1/29/2006 20:00    2.51 55.00 2760 415.8 True x
2/5/2006 12:00    2.23 77.00 2230 465.8 True x
2/12/2006 08:00    2.09 75.00 1980 401.7 True x
2/19/2006 17:00    2.10 71.00 2000 385.5 True x
2/26/2006 19:00    1.90 77.00 1650 345.6 True x
3/5/2006 17:00    1.84 80.00 1550 337.2 True x
3/12/2006 16:30    2.67 11 66.00 3080 552.6 True x
3/19/2006 18:30    3.27 119.00 4250 1,367.2 True x
3/26/2006 19:00    2.61 82.00 2960 658.0 True x
4/2/2006 14:30    2.33 12 86.00 2420 562.0 True x
4/9/2006 19:00    2.19 13 66.00 2160 389.7 True x
4/16/2006 07:00    2.16 18 72.00 2110 413.5 True x
4/23/2006 07:00    2.44 18 86.00 2630 611.4 True x
4/30/2006 18:00    2.09 14 104.00 1980 559.2 True x
5/7/2006 20:00    2.19 15 106.00 2160 622.9 True x
5/10/2006 17:58    2.05 17 111.00 1910 575.3 True x
5/10/2006 18:29    2.05  87.00 1910 450.7 True x
5/14/2006 20:30    2.91 15 73.00 3550 708.7 True x
5/22/2006 18:00    2.76 17 76.00 3250 673.6 True x
5/28/2006 21:00    2.46 26 101.00 2660 730.8 True x
6/4/2006 19:00    2.04 27 84.00 1890 430.9 True x
6/11/2006 07:00    1.95 19 127.00 1730 593.3 True x
6/18/2006 20:00    1.71 25 117.00 1350 426.7 True x
6/25/2006 19:00    1.53 24 106.00 1090 313.6 True x
7/2/2006 20:00    1.32 25 105.00 821 234.6 True x
7/9/2006 21:00    1.19 26 74.00 674 134.9 True x
7/16/2006 21:00    2.03 28 74.00 1870 373.7 True x
7/23/2006 19:00    2.21 27 67.00 2200 400.2 True x
7/30/2006 20:00    2.02 30 43.00 1860 217.5 True x
8/5/2006 20:00    1.77 25 77.00 1440 301.8 True x
8/13/2006 19:30    2.16 25 53.00 2110 303.8 True x
8/20/2006 21:00    1.77 21 71.00 1440 277.8 True x
8/27/2006 20:00    1.67 22 43.00 1290 153.0 True x
9/3/2006 18:30    1.85 19 59.00 1570 253.6 True x
9/10/2006 18:00    1.70 18 42.00 1330 153.4 True x
9/17/2006 18:30    2.33 18 47.00 2420 308.6 True x
9/24/2006 19:00    1.83 18 67.00 1540 281.9 True x
10/1/2006 17:00    1.73 15 69.00 1380 258.7 True x
10/8/2006 18:00    2.27 15 63.00 2260 385.7 True x
10/15/2006 19:30    2.34 10 51.00 2380 331.8 True x
10/22/2006 17:30    2.87 31.00 3420 290.9 True x
10/26/2006 08:45    2.52 11.00 2720 84.8 True x
10/26/2006 09:23    2.52  20.00 2720 152.5 True x
10/29/2006 18:00    2.40 19.00 2490 130.6 True x
11/5/2006 19:30    2.12 72.00 2000 388.9 True x
11/12/2006 15:30    2.31 48.00 2330 302.8 True x
11/19/2006 17:00    2.64 15.00 2950 119.9 True x
11/26/2006 17:00    2.52 10 29.00 2720 219.4 True x
12/3/2006 14:00    3.68 142.00 5240 2,014.7 True x
12/10/2006 11:00    3.15 234.00 4030 2,554.2 True x
12/17/2006 18:00    3.00 93.00 3700 931.1 True x
12/24/2006 17:00    3.79 200.00 5440 2,951.8 True x
12/31/2006 10:00    3.32 230.00 4420 2,755.5 True x
1/7/2007 12:00    4.03 194.00 5880 3,090.6 True x
1/15/2007 17:00    4.54 401.00 6840 7,417.3 True x
1/21/2007 09:00    3.85 258.00 5550 3,869.3 True x
1/28/2007 09:00    3.26 479.00 4280 5,542.2 True x
2/4/2007 09:30    3.18 79.00 4100 878.0 True x
2/10/2007 11:30    4.78 24.00 7300 480.3 True x
2/17/2007 13:00    4.37 20.00 6520 358.3 True x
2/25/2007 16:00    3.64 172.00 5170 2,410.9 True x
3/11/2007 14:30    3.38 154.00 4560 1,896.6 True x
3/18/2007 13:30    3.46 332.00 4760 4,273.1 True x
3/25/2007 14:30    3.97 15 174.00 5770 2,721.1 True x
4/1/2007 19:00    3.36 13 123.00 4520 1,511.7 True x
4/8/2007 18:00    2.98 176.00 3650 1,739.8 True x
4/15/2007 19:00    3.19 10 238.00 4120 2,648.6 True x
4/22/2007 18:30    2.81 18 42.00 3290 379.1 True x
4/29/2007 20:00    4.43 17 171.00 6630 3,063.6 True x
5/6/2007 20:00    3.48 18 325.00 4800 4,214.8 True x
5/8/2007 16:52    3.15 20 33.00 4030 362.0 True x
5/8/2007 17:34    3.15  31.00 4030 345.3 True x
5/13/2007 18:30    2.55 19 101.00 2770 758.3 True x
5/20/2007 19:00    2.33 20 109.00 2370 698.7 True x
5/27/2007 19:30    2.37 22 152.00 2440 1,002.9 True x
6/3/2007 17:30    2.09 24 121.00 1950 642.3 True x
6/10/2007 18:30    1.93 25 106.00 1700 488.9 True x
6/17/2007 19:30    1.50 25 105.00 1050 298.8 True x
6/24/2007 20:00    1.87 23 96.00 1600 416.0 True x
7/1/2007 19:30    1.54 26 41.00 1100 124.6 True x
7/8/2007 21:00    1.25 29 92.00 740 184.8 True x
7/15/2007 22:00    1.04 25 29.00 520 41.0 True x
7/22/2007 19:30    1.62 25 41.00 1220 137.8 True x
7/29/2007 19:00    1.67 26 83.00 1290 292.2 True x
8/5/2007 19:30    1.51 27 69.00 1060 198.7 True x
8/12/2007 19:00    1.40 26 33.00 919 84.2 True x
8/19/2007 20:30    2.64 20 387.00 2950 3,082.4 True x
8/26/2007 16:00    5.40 23 106.00 8520 2,459.1 True x
9/2/2007 17:30    3.82 21 50.00 5500 743.9 True x
9/9/2007 21:00    2.56 22 64.00 2790 483.1 True x
9/16/2007 21:00    2.19 15 52.00 2120 303.0 True x
9/23/2007 19:00    1.90 19 68.00 1650 303.8 True x
9/30/2007 19:00    1.82 18 57.00 1520 235.6 True x
10/7/2007 19:30    1.75 19 97.00 1410 373.0 True x
10/14/2007 16:30    1.75 14 74.00 1410 282.1 True x
10/21/2007 19:30    2.20 14 43.00 2140 249.4 True x
10/26/2007 09:10    2.11 12 25.00 1990 135.8 True x
10/26/2007 09:55    2.11  35.00 1990 191.4 True x
10/28/2007 19:00    2.17 11 27.00 2090 154.1 True x
11/4/2007 17:45    1.97 43.00 1760 208.3 True x
11/11/2007 19:00    1.86 46.00 1580 198.4 True x
11/18/2007 14:30    1.85 10 6.00 1570 27.2 True x
11/25/2007 16:00    2.60 21.00 2870 169.1 True x
12/2/2007 17:30    2.53 12.00 2740 96.1 True x
12/9/2007 09:00    2.51 17.00 2700 130.6 True x
12/16/2007 14:00    3.78 185.00 5430 2,713.7 True x
12/23/2007 09:00    3.65 39.00 5190 559.0 True x
12/30/2007 08:00    3.41 96.00 4630 1,212.1 True x
1/6/2008 15:00    3.24 78.00 4230 896.1 True x
1/13/2008 11:00    5.28 85.00 8290 1,917.2 True x
1/20/2008 09:30    4.60 64.00 6960 1,202.7 True x
1/27/2008 09:00    4.41 28.00 6600 511.2 True x
2/3/2008 11:30    3.54 104.00 4950 1,397.5 True x
2/10/2008 09:00    5.30 68.00 8330 1,534.8 True x
2/17/2008 09:00    4.78 8.00 7300 163.1 True x
2/24/2008 18:00    4.12 214.00 6050 3,497.9 True x
3/2/2008 15:00    3.70 270.00 5280 3,857.0 True x
3/9/2008 12:00    3.93 158.00 5700 2,434.4 True x
3/16/2008 16:00    3.71 152.00 5300 2,189.3 True x
3/28/2008 13:30    3.84 44.00 5530 666.8 True x
3/30/2008 19:30    3.87 122.00 5590 1,842.2 True x
4/6/2008 20:00    3.87 10 185.00 5590 2,804.9 True x
4/13/2008 18:00    4.10 10 551.00 6010 8,944.3 True x
4/20/2008 18:00    3.61 18 177.00 5120 2,448.4 True x
4/27/2008 08:00    3.15 14 43.00 4030 471.5 True x
5/4/2008 12:00    2.97 14 25.00 3630 246.3 True x
5/7/2008 08:07    2.82 16 17.00 3310 155.2 True x
5/7/2008 08:50    2.82  14.00 3310 133.3 True x
5/11/2008 19:00    2.95 14 33.00 3590 325.3 True x
5/18/2008 20:30    2.64 16 52.00 2950 422.0 True x
5/25/2008 19:00    2.41 18 72.00 2510 493.3 True x
6/1/2008 17:30    2.58 22 119.00 2830 911.6 True x
6/8/2008 18:30    4.77 24 216.00 7280 4,261.1 True x
6/15/2008 20:00    2.84 22 106.00 3360 964.1 True x
6/22/2008 11:30    2.47 22 63.00 2620 448.5 True x
6/29/2008 19:00    2.28 24 309.00 2280 1,903.2 True x
7/6/2008 07:00    1.92 21 51.00 1680 234.8 True x
7/13/2008 20:00    1.71 28 28.00 1350 103.1 True x
7/20/2008 19:30    1.58 25 50.00 1160 158.6 True x
7/27/2008 20:00    1.38 25 14.00 894 36.2 True x
8/3/2008 20:00    1.32 24 19.00 821 42.7 True x
8/10/2008 19:30    2.79 21 132.00 3250 1,160.7 True x
8/17/2008 20:30    1.66 21 32.00 1270 110.9 True x
8/24/2008 20:00    1.71 25 44.00 1350 160.5 True x
8/31/2008 21:00    1.29 21 39.00 786 82.8 True x
9/7/2008 19:30    1.97 19 51.00 1760 244.1 True x
9/14/2008 19:00    6.03 19 189.00 9800 5,004.5 True x
9/21/2008 08:00    6.02 19 127.00 9780 3,378.8 True x
9/28/2008 18:00    4.29 19 121.00 6370 2,094.5 True x
10/5/2008 19:30    3.03 14 42.00 3310 384.2 True x
10/9/2008 08:05    2.92 13 19.00 3100 162.8 True x
10/9/2008 08:45    2.92  18.00 3100 155.3 True x
10/12/2008 17:30    2.86 17 43.00 2980 351.5 True x
10/19/2008 19:00    2.96 11 18.00 3180 155.1 True x
10/26/2008 16:30    2.73 10 22.00 2740 168.2 True x
11/2/2008 15:00    2.54 12 25.00 2410 168.3 True x
11/9/2008 17:00    2.36 42.00 2110 244.1 True x
11/16/2008 15:30    2.36 45.00 2110 261.7 True x
11/23/2008 19:00    2.32 20.00 2050 111.9 True x
11/30/2008 16:30    2.34 10.00 2080 58.3 True x
12/7/2008 16:00    2.31 17.00 2030 95.6 True x
12/14/2008 12:00    2.73 10.00 2740 78.1 True x
12/22/2008 16:00    5.15 4.00 8030 93.8 True x
12/28/2008 12:00    5.40 37.00 8530 853.3 True x
1/4/2009 16:00    4.00 11.00 5470 176.5 True x
1/11/2009 12:30    3.26 12.00 3780 125.1 True x
1/18/2009 17:00    4.37 39.00 6420 684.3 True x
1/25/2009 17:30    6.71 37.00 11200 1,141.9 True x
2/1/2009 17:00    6.88 43.00 11600 1,360.5 True x
2/8/2009 08:00    5.48 25.00 8690 590.0 True x
2/15/2009 19:00    4.22 130.00 6030 2,132.7 True x
2/22/2009 17:30    3.92 96.00 5270 1,372.1 True x
3/1/2009 17:00    4.15 166.00 5850 2,622.7 True x
3/8/2009 16:30    5.97 151.00 9680 3,971.3 True x
3/15/2009 10:30    5.52 62.00 8770 1,489.9 True x
3/22/2009 14:30    4.77 11 75.00 7290 1,480.8 True x
3/29/2009 08:00    4.29 47.00 6210 800.9 True x
4/5/2009 08:00    4.26 11 23.00 6130 389.7 True x
4/12/2009 19:45    4.47 10 14.00 6690 259.5 True x
4/19/2009 15:00    4.13 13 34.00 5800 541.1 True x
4/23/2009 08:37    3.97 11 9.00 5400 143.8 True x
4/23/2009 09:18    3.97  13.00 5400 195.9 True x
4/26/2009 11:00    3.60 17 23.00 4520 292.3 True x
5/3/2009 12:30    3.31 15 26.00 3890 276.6 True x
5/8/2009 18:30    3.06 16 81.00 3370 745.2 True x
5/17/2009 18:30    4.64 15 92.00 7030 1,755.6 True x
5/24/2009 18:00    3.48 20 48.00 4250 552.1 True x
5/31/2009 20:00    2.84 19 63.00 2950 506.8 True x
6/7/2009 19:30    2.59 19 86.00 2500 586.4 True x
6/14/2009 20:30    3.12 20 67.00 3490 640.0 True x
6/21/2009 19:00    2.78 23 62.00 2840 479.8 True x
6/28/2009 19:00    2.35 22 60.00 2090 343.9 True x
7/5/2009 20:00    1.99 24 92.00 1550 388.0 True x
7/12/2009 21:30    1.72 24 96.00 1190 310.3 True x
7/19/2009 20:30    1.65 21 69.00 1110 209.4 True x
7/26/2009 20:30    1.70 25 31.00 1170 99.5 True x
8/2/2009 21:00    1.50 24 69.00 931 174.6 True x
8/9/2009 20:00    1.34 27 72.00 759 149.3 True x
8/16/2009 20:30    1.17 25 83.00 594 133.7 True x
8/23/2009 20:00    1.53 22 37.00 965 97.2 True x
8/30/2009 19:00    2.13 21 74.00 1750 352.0 True x
9/6/2009 19:30    1.71 19 45.00 1180 143.7 True x
9/13/2009 18:30    1.57 22 38.00 1010 105.1 True x
9/20/2009 18:00    1.52 20 46.00 953 119.6 True x
9/27/2009 18:30    1.45 16 89.00 875 211.4 True x
10/4/2009 16:30    1.65 12 23.00 1110 71.8 False x
10/8/2009 08:23    1.60 13 15.00 1050 44.6 False x
10/8/2009 09:12    1.60  16.00 1050 46.9 False x
10/11/2009 17:30    1.70 83.00 1170 263.3 False x
10/11/2009 18:00    1.77 10 22.00 1250 75.4 False x
10/25/2009 17:00    2.72 12 61.00 2730 449.8 False x
11/1/2009 18:30    4.22 10 75.00 6030 1,236.6 False x
11/8/2009 16:15    2.97 12 62.00 3200 543.9 False x
11/15/2009 12:00    2.38 31.00 2140 179.8 False x
11/22/2009 12:00    2.49 28.00 2320 180.6 False x
11/29/2009 19:00    2.60 41.00 2510 281.6 False x
12/6/2009 16:00    2.36 9.00 2110 56.1 False x
12/6/2009 18:30    2.49 65.00 2320 408.0 False x
12/20/2009 07:30    2.40 11.00 2170 64.6 False x
12/27/2009 18:00    3.17 21.00 3590 209.9 False x
1/3/2010 12:00    3.03 11.00 3310 99.0 False x
1/10/2010 14:00    5.20 17.00 8130 390.7 False x
1/17/2010 19:00    2.37 87.00 2130 504.7 False x
1/24/2010 12:00    3.37 139.00 4010 1,514.5 False x
1/31/2010 17:00    3.06 30.00 3370 274.0 False x
2/7/2010 15:30    2.53 60.00 2390 392.7 False x
2/14/2010 17:00    2.31 68.00 2030 375.4 False x
2/21/2010 12:00    2.22 42.00 1890 215.8 False x
2/28/2010 13:00    2.59 38.00 2500 259.5 False x
3/7/2010 16:00    2.91 24.00 3080 206.9 False x
3/14/2010 17:00    3.97 52.00 5400 765.4 False x
3/21/2010 19:00    3.34 38.00 3950 407.6 False x
3/28/2010 17:30    2.81 24.00 2890 193.4 False x
4/4/2010 09:00    2.63 13 40.00 2570 283.5 False x
4/11/2010 07:00    3.10 11 27.00 3450 253.4 False x
4/18/2010 17:00    2.51 15 41.00 2360 267.0 False x
4/25/2010 19:30    2.65 15 45.00 2600 320.8 False x
5/2/2010 13:00    2.51 18 74.00 2360 477.1 False x
5/9/2010 14:00    2.37 15 37.00 2130 214.6 False x
5/16/2010 18:00    3.30 16 44.00 3870 466.5 False x
5/23/2010 20:00    3.41 21 52.00 4100 579.4 False x
5/30/2010 11:00    3.29 23 45.00 3840 476.7 False x
6/6/2010 17:00    3.64 21 92.00 4610 1,150.9 False x
6/13/2010 16:30    3.10 23 88.00 3450 821.1 False x
6/20/2010 13:00    3.63 24 49.00 4590 615.0 False x
6/27/2010 19:00    3.42 25 68.00 4120 766.1 False x
7/4/2010 20:00    2.51 25 76.00 2360 486.7 False x
7/11/2010 09:30    2.00 25 75.00 1560 319.1 False x
7/18/2010 08:30    1.85 26 33.00 1360 123.1 False x
7/25/2010 10:00    2.05 26 94.00 1640 418.4 False x
8/1/2010 17:30    2.00 24 68.00 1560 287.6 False x
8/8/2010 11:30    2.24 24 80.00 1920 418.4 False x
8/15/2010 09:30    1.61 28 59.00 1060 170.2 False x
8/22/2010 17:00    1.40 27 25.00 822 56.9 False x
8/29/2010 10:00    1.27 25 23.00 689 42.8 False x
9/5/2010 20:00    1.54 20 51.00 976 135.7 False x
9/12/2010 18:30    1.40 20 36.00 822 81.9 False x
9/19/2010 11:00    1.40 19 35.00 822 78.4 False x
9/26/2010 10:30    1.39 17 31.00 811 68.1 False x
10/3/2010 13:00    1.33 15 13.00 749 27.0 False x
10/10/2010 10:00    1.25 16 16.00 670 29.2 False x
10/17/2010 11:00    1.23 14 9.00 650 15.9 False x
10/24/2010 12:00    1.25 14 7.00 670 13.8 False x
10/31/2010 19:00    1.26 10 6.00 679 11.3 False x
11/7/2010 17:30    1.31 7.00 729 14.9 False x
11/14/2010 19:00    1.31 7.00 729 14.5 False x
11/28/2010 09:00    1.65 9.00 1110 27.2 False x
12/5/2010 12:00    1.73 82.00 1200 266.8 False x
12/12/2010 09:00    1.77 56.00 1250 189.0 False x
12/19/2010 09:30    4.13 11.00 5800 175.9 False x
12/26/2010 11:00    3.85 66.00 5110 920.1 False x
1/2/2011 11:00    2.85 26.00 2970 211.1 False x
1/9/2011 11:00    2.43 9.00 2220 57.3 False x
1/16/2011 09:00    2.19 25.00 1840 126.0 False x
1/23/2011 09:00    3.15 55.00 3550 530.4 False x
1/30/2011 11:30    3.82 12.00 5030 172.8 False x
2/6/2011 12:00    3.68 7.00 4710 97.2 False x
2/13/2011 12:30    3.30 6.00 3870 72.5 False x
2/20/2011 08:00    3.02 63.00 3290 566.1 False x
2/27/2011 08:00    3.09 69.00 3430 642.1 False x
3/6/2011 12:00    3.84 67.00 5080 930.9 False x
3/13/2011 11:00    3.81 104.00 5010 1,417.2 False x
3/20/2011 16:30    3.08 10 96.00 3410 884.7 False x
3/27/2011 17:30    2.95 11 9.00 3160 77.9 False x
4/3/2011 11:00    2.57 68.00 2460 457.9 False x
4/10/2011 12:00    2.55 16 56.00 2430 372.4 False x
4/17/2011 11:00    2.75 10 23.00 2780 176.6 False x
4/24/2011 10:30    4.18 12 115.00 5920 1,841.0 False x
5/1/2011 18:00    4.68 13 99.00 7110 1,918.6 False x
5/8/2011 07:30    4.25 13 118.00 6100 1,947.0 False x
5/15/2011 17:00    3.75 12 65.00 4870 855.4 False x
5/22/2011 10:00    3.51 19 31.00 4320 366.7 False x
5/29/2011 13:00    4.15 16 197.00 5850 3,122.6 False x
6/5/2011 11:00    4.51 20 401.00 6790 7,361.4 False x
6/12/2011 19:30    3.87 20 129.00 5150 1,793.8 False x
6/19/2011 12:00    3.63 22 116.00 4590 1,437.9 False x
6/26/2011 20:00    3.05 21 59.00 3350 535.8 False x
7/3/2011 10:30    3.08 23 48.00 3410 446.8 False x
7/10/2011 08:00    2.59 23 67.00 2500 452.8 False x
7/17/2011 13:00    1.95 26 46.00 1490 187.1 False x
7/24/2011 13:00    2.52 26 67.00 2380 436.7 False x
7/31/2011 17:00    2.17 28 58.00 1810 284.3 False x
8/7/2011 19:00    1.78 28 38.00 1270 132.4 False x
8/14/2011 19:30    1.80 23 29.00 1290 103.0 False x
8/21/2011 19:30    1.63 23 21.00 1080 61.4 False x
8/28/2011 19:30    1.39 24 18.00 811 39.8 False x
9/4/2011 18:00    1.32 20 13.00 739 27.8 False x
9/11/2011 17:30    1.47 23 21.00 897 52.3 False x
9/18/2011 15:00    1.43 16 24.00 854 56.1 False x
9/25/2011 18:00    1.38 16 36.00 801 78.7 False x
10/2/2011 18:00    1.77 15 22.00 1250 74.8 False x
10/9/2011 16:30    1.58 18 17.00 1020 47.4 False x
10/16/2011 18:00    1.52 13 16.00 953 41.6 False x
10/23/2011 17:00    2.01 12 36.00 1580 154.2 False x
10/30/2011 08:00    2.57 11 12.00 2460 84.0 False x
11/6/2011 14:30    2.09 10 12.00 1690 55.0 False x
11/13/2011 15:00    2.13 11 20.00 1750 95.9 False x
11/20/2011 17:00    2.41 13.00 2190 79.8 False x
11/21/2011 15:00    1.27 16.00 689 31.6 False x
11/27/2011 08:00    2.50 10 31.00 2340 201.9 False x
12/4/2011 09:30    2.58 12.00 2480 82.7 False x
12/11/2011 16:30    2.81 15.00 2890 122.5 False x
12/18/2011 11:30    3.95 65.00 5350 953.4 False x
12/25/2011 16:00    3.52 54.00 4340 642.1 False x
1/1/2012 12:00    3.12 29.00 3490 277.3 False x
1/8/2012 19:00    2.71 19.00 2710 145.0 False x
1/15/2012 20:00    2.50 38.00 2340 244.7 False x
1/22/2012 14:00    3.50 47.00 4300 550.4 False x
1/29/2012 12:00    3.56 98.00 4430 1,182.4 False x
2/5/2012 17:00    3.43 64.00 4140 724.8 False x
2/12/2012 17:00    2.95 14.00 3160 126.6 False x
2/19/2012 15:30    2.81 65.00 2890 510.4 False x
2/25/2012 15:45    2.74 13.00 2760 99.9 False x
3/4/2012 16:00    3.09 97.00 3430 900.4 False x
3/11/2012 19:00    2.74 11 31.00 2760 235.0 False x
3/18/2012 09:30    2.65 14 36.00 2600 253.3 False x
3/25/2012 11:30    2.71 16 192.00 2710 1,406.6 False x
4/1/2012 15:00    2.30 15 111.00 2010 604.6 False x
4/8/2012 12:00    2.07 13 48.00 1660 218.3 False x
4/15/2012 08:00    1.98 13 30.00 1540 126.0 False x
4/22/2012 10:00    2.00 12 24.00 1560 103.7 False x
4/29/2012 09:00    1.86 11 18.00 1370 70.1 False x
5/6/2012 20:00    2.19 19 76.00 1840 382.0 False x
5/13/2012 08:00    3.11 18 111.00 3470 1,048.3 False x
5/20/2012 19:30    2.54 20 169.00 2410 1,101.8 False x
5/27/2012 19:30    1.94 26 65.00 1480 262.3 False x
6/3/2012 20:00    1.80 21 95.00 1290 332.7 False x
6/10/2012 19:30    1.42 24 108.00 843 246.2 False x
6/17/2012 14:00    3.13 23 262.00 3510 2,483.9 False x
6/24/2012 19:30    1.60 26 54.00 1050 154.1 False x
7/1/2012 20:00    1.43 30 55.00 854 128.9 False x
7/8/2012 19:30    1.11 28 32.00 540 47.5 False x
7/15/2012 19:00    0.96 30 38.00 416 43.2 False x
7/22/2012 18:30    1.24 28 55.00 660 99.0 False x
7/29/2012 19:30    1.13 25 23.00 558 35.4 False x
8/5/2012 19:15    1.07 26 79.00 506 108.4 False x
8/12/2012 19:30    1.09 21 99.00 523 140.1 False x
8/19/2012 18:30    1.25 22 29.00 670 54.1 False x
8/26/2012 18:00    1.08 25 8.00 514 11.2 False x
9/2/2012 19:00    1.36 25 56.00 780 119.9 False x
9/9/2012 18:15    1.23 22 30.00 650 53.7 False x
9/16/2012 18:00    1.17 21 12.00 594 20.2 False x
9/23/2012 20:00    1.10 16 101.00 532 146.3 False x
9/30/2012 17:30    1.14 16 14.00 567 22.4 False x
10/7/2012 12:00    1.07 11 61.00 506 84.3 False x
10/14/2012 11:00    1.17 14 89.00 594 144.3 False x
10/21/2012 20:00    1.55 16 69.00 987 184.9 False x
10/28/2012 14:00    1.53 11 4.00 965 12.8 False x
11/4/2012 19:00    1.44 383.00 865 895.3 False x
11/11/2012 15:00    1.39 12 102.00 811 225.5 False x
11/18/2012 12:00    1.33 11 92.00 749 187.8 False x
11/25/2012 16:30    1.31 93.00 729 183.6 False x
12/2/2012 17:00    1.33 11 21.00 749 43.6 False x
12/9/2012 15:30    1.45 83.00 875 198.2 False x
12/16/2012 10:00    1.45 95.00 875 225.0 False x
12/23/2012 12:00    1.83 19.00 1330 70.2 False x
12/30/2012 15:00    1.77 92.00 1250 312.3 False x
1/6/2013 11:00    1.68 90.00 1140 278.5 False x
1/13/2013 17:00    2.25 100.00 1940 526.2 False x
1/20/2013 08:00    2.19 152.00 1840 759.7 False x
1/27/2013 08:00    4.02 118.00 5520 1,767.7 False x
2/4/2013 13:46    3.04 122.00 3330 1,102.9 False x
2/10/2013 08:00    2.67 36.00 2640 260.5 False x
2/17/2013 16:30    2.48 70.00 2310 440.1 False x
2/24/2013 14:00    2.18 66.00 1830 328.0 False x
2/28/2013 12:02    2.38  33.00 2140 196.0 False x
2/28/2013 12:17    2.38  22.00 2140 128.5 False x
3/3/2013 15:30    2.84 57.00 2950 458.0 False x
3/10/2013 11:00    2.66 57.00 2620 408.1 False x
3/17/2013 09:00    3.10 33.00 3450 309.4 False x
3/24/2013 12:30    2.52 99.00 2380 637.6 False x
3/31/2013 09:00    2.32 83.00 2050 462.8 False x
4/7/2013 13:00    2.81 11 203.00 2890 1,590.3 False x
4/14/2013 11:00    3.24 12 38.00 3740 390.5 False x
4/21/2013 17:00    4.23 11 87.00 6050 1,431.3 False x
4/28/2013 15:30    4.33 13 76.00 6310 1,297.7 False x
5/1/2013 10:48    4.01 19 107.00 5500 1,600.9 False x
5/1/2013 11:08    4.00  119.00 5470 1,769.1 False x
5/5/2013 16:00    2.97 18 55.00 3200 475.6 False x
5/12/2013 12:00    2.58 18 81.00 2480 544.4 False x
5/19/2013 12:00    2.44 20 92.00 2240 558.1 False x
5/26/2013 17:30    2.62 20 90.00 2550 621.6 False x
6/2/2013 16:00    3.07 19 71.00 3390 658.8 False x
6/9/2013 19:30    2.47 20 46.00 2290 290.5 False x
6/16/2013 18:30    3.30 22 47.00 3870 497.1 False x
6/23/2013 19:00    2.62 24 68.00 2550 468.9 False x
6/30/2013 19:00    2.97 21 76.00 3200 658.7 False x
7/2/2013 11:14    3.14 22 74.00 3530 713.8 False x
7/2/2013 11:35    3.14  85.00 3530 815.2 False x
7/7/2013 20:15    2.98 23 71.00 3210 618.2 False x
7/14/2013 18:00    2.35 26 80.00 2090 453.7 False x
7/21/2013 19:00    1.79 27 108.00 1280 373.5 False x
7/28/2013 20:00    1.49 19 52.00 920 130.8 False x
8/4/2013 20:00    1.75 21 59.00 1230 198.5 False x
8/10/2013 19:30    1.65 21 45.00 1110 137.0 False x
8/18/2013 19:30    1.39 24 114.00 811 251.4 False x
8/25/2013 19:00    1.26 25 30.00 679 55.4 False x
9/1/2013 18:30    1.27 23 30.00 689 56.2 False x
9/4/2013 11:50    1.26 25 22.00 679 41.4 False x
9/4/2013 12:03    1.25  21.00 670 39.8 False x
9/8/2013 16:30    1.11 25 49.00 540 71.9 False x
9/15/2013 16:00    1.17 24 22.00 594 36.3 False x
9/22/2013 16:30    1.82 21 25.00 1320 91.7 False x
9/29/2013 18:30    1.52 19 47.00 953 123.0 False x
10/6/2013 09:30    1.68 18 27.00 1140 85.5 False x
10/13/2013 12:00    1.63 16 29.00 1080 85.9 False x
10/20/2013 10:00    1.54 12 97.00 976 256.7 False x
10/27/2013 17:00    1.42 100.00 843 229.4 False x
10/29/2013 12:16    1.43 86.00 854 199.8 False x
10/29/2013 12:31    1.43  87.00 854 200.7 False x
11/3/2013 17:00    2.29 33.00 2000 183.0 False x
11/10/2013 16:30    2.19 60.00 1840 301.0 False x
11/17/2013 09:00    2.06 10 11.00 1650 52.5 False x
11/24/2013 11:30    2.35 8.00 2090 48.0 False x
12/1/2013 16:30    2.12 27.00 1740 128.1 False x
12/2/2013 12:28    2.13 38.00 1750 179.8 False x
12/2/2013 12:55    2.13  81.00 1750 386.2 False x
12/8/2013 09:30    2.07 79.00 1660 358.5 False x
12/15/2013 16:00    3.53 9.00 4370 109.4 False x
12/22/2013 15:00    2.53 64.00 2390 416.8 False x
12/29/2013 12:00    2.71 97.00 2710 714.6 False x
1/5/2014 08:00    2.20 69.00 1860 350.3 False x
1/12/2014 11:00    4.39 8.00 6470 145.4 False x
1/19/2014 15:30    7.69 26.00 13300 945.7 False x
1/26/2014 12:00    5.97 14.00 9680 370.4 False x
2/23/2014 16:30    6.84 35.00 11500 1,096.0 False x
3/2/2014 12:30    5.86 39.00 9460 1,003.2 False x
3/9/2014 12:00    2.58 25.00 2480 173.0 False x
3/16/2014 15:00    3.53 53.00 4370 627.4 False x
3/23/2014 16:00    4.00 49.00 5470 727.9 False x
3/30/2014 13:00    3.56 69.00 4430 827.2 False x
4/6/2014 18:00    4.02 57.00 5520 852.4 False x
4/8/2014 10:24    3.96 105.00 5370 1,523.3 False x
4/8/2014 10:54    3.96 62.00 5370 902.0 False x
4/13/2014 11:00    3.69 14 39.00 4730 509.8 False x
4/20/2014 18:00    2.68 15 25.00 2650 181.7 False x
4/29/2014 12:00    2.57 14 39.00 2460 263.7 False x
5/4/2014 18:30    2.41 14 24.00 2190 145.1 False x
5/11/2014 19:00    3.07 15 51.00 3390 473.1 False x
5/18/2014 18:36    3.52 16 35.00 4340 421.5 False x
5/25/2014 19:00    2.74 18 41.00 2760 306.3 False x
6/1/2014 19:30    2.53 18 60.00 2390 393.1 False x
6/2/2014 14:05    2.45 26 56.00 2260 344.2 False x
6/2/2014 15:04    2.45 26 39.00 2260 238.4 False x
6/15/2014 08:00    2.56 16 48.00 2440 317.4 False x
6/22/2014 15:00    2.53 16 65.00 2390 420.7 False x
6/29/2014 17:30    4.33 17 85.00 6310 1,448.5 False x
7/6/2014 18:30    3.40 18 71.00 4080 792.9 False x
7/13/2014 19:00    2.61 21 47.00 2530 326.7 False x
7/20/2014 19:30    2.06 24 55.00 1650 245.7 False x
7/27/2014 19:30    1.74 23 19.00 1220 63.1 False x
8/3/2014 17:00    1.59 22 40.00 1030 112.6 False x
8/10/2014 10:00    1.37 23 35.00 790 75.9 False x
8/12/2014 09:05    1.55 22 17.00 987 45.4 False x
8/12/2014 10:23    1.54 22 13.00 976 36.3 False x
8/17/2014 19:30    2.56 22 133.00 2440 876.5 False x
8/24/2014 11:00    2.81 22 36.00 2890 281.7 False x
8/31/2014 17:00    2.86 24 34.00 2980 276.5 False x
9/7/2014 18:00    2.82 19 32.00 2910 258.1 False x
9/14/2014 18:00    3.50 17 25.00 4300 290.4 False x
9/21/2014 18:30    3.00 17 27.00 3250 242.4 False x
9/28/2014 19:00    2.51 19 18.00 2360 117.2 False x
10/1/2014 11:43    2.39 18 13.00 2160 80.0 False x
10/1/2014 13:01    2.39 18 14.00 2160 85.5 False x
10/5/2014 17:00    3.23 15 88.00 3720 889.6 False x
10/12/2014 18:00    3.16 14 80.00 3570 775.7 False x
10/19/2014 14:00    3.09 11 81.00 3430 752.7 False x
10/26/2014 09:30    2.59 13 85.00 2500 575.3 False x
11/2/2014 11:30    2.40 12 77.00 2170 453.8 False x
11/9/2014 17:00    2.37 14 74.00 2130 426.4 False x
11/16/2014 16:00    2.21 12 6.00 1870 34.8 False x
11/23/2014 12:00    2.14 72.00 1770 348.8 False x
11/30/2014 16:00    3.13 34.00 3510 330.2 False x
12/7/2014 11:00    2.64 7.00 2580 53.2 False x
12/14/2014 15:00    2.46 46.00 2270 284.0 False x
12/21/2014 16:00    2.38 74.00 2140 430.2 False x
12/28/2014 13:30    2.87 11.00 3000 90.8 False x
1/4/2015 13:00    2.96 18.00 3180 162.3 False x
1/18/2015 10:00    4.64 17.00 7030 334.6 False x
1/25/2015 08:00    2.69 31.00 2670 224.8 False x
2/1/2015 08:00    2.37 13.00 2130 75.4 False x
2/8/2015 11:00    2.39 22.00 2160 132.1 False x
2/15/2015 12:00    2.36 93.00 2110 532.1 False x
2/22/2015 16:00    2.62 40.00 2550 275.8 False x
3/8/2015 14:00    2.43 29.00 2220 176.0 False x
3/15/2015 08:00    3.35 42.00 3970 456.8 False x
3/22/2015 18:00    3.09 20.00 3430 187.1 False x
3/29/2015 10:00    2.87 15.00 3000 125.3 False x
4/5/2015 17:00    2.47 11 15.00 2290 97.4 False x
4/12/2015 08:30    2.36 12 30.00 2110 173.8 False x
4/13/2015 11:02    2.36 15 40.00 2110 231.0 False x
4/13/2015 11:58    2.36 15 24.00 2110 138.7 False x
4/19/2015 09:00    2.14 15 80.00 1770 383.6 False x
4/26/2015 10:00    2.44 16 85.00 2240 517.3 False x
5/3/2015 19:30    2.13 19 106.00 1750 504.4 False x
5/10/2015 20:00    2.87 24 50.00 3000 413.0 False x
5/17/2015 19:30    2.76 21 64.00 2800 485.5 False x
5/24/2015 18:00    2.17 21 93.00 1810 456.4 False x
5/31/2015 19:00    2.74 16 71.00 2760 530.2 False x
6/7/2015 21:00    5.01 20 225.00 7750 4,712.3 False x
6/9/2015 11:05    5.07 20 137.00 7870 2,921.9 False x
6/9/2015 12:18    5.07 21 130.00 7870 2,770.2 False x
6/11/2015 17:00    6.01 22 80.00 9760 2,125.3 False x
6/14/2015 09:00    5.51 22 39.00 8750 938.3 False x
6/21/2015 19:00    5.57 22 61.00 8870 1,483.5 False x
6/23/2015 13:00    6.71 23 34.00 11200 1,040.2 False x
7/12/2015 17:00    4.18 21 34.00 5920 555.0 False x
7/19/2015 18:30    4.92 24 44.00 7580 920.8 False x
7/27/2015 18:00    3.71 25 46.00 4780 598.7 False x
8/2/2015 19:30    3.25 26 36.00 3760 366.0 False x
8/9/2015 18:00    2.21 26 31.00 1870 160.4 False x
8/16/2015 19:30    1.91 27 39.00 1440 153.9 False x
8/23/2015 19:00    1.90 25 25.00 1430 97.4 False x
8/24/2015 10:37    2.00 22 29.00 1560 125.8 False x
8/24/2015 11:42    1.99 23 132.00 1550 552.8 False x
8/30/2015 19:30    1.88 24 26.00 1400 98.9 False x
9/6/2015 20:30    1.69 24 25.00 1150 80.0 False x
9/13/2015 18:00    1.94 22 15.00 1480 62.2 False x
9/20/2015 18:30    2.39 20 39.00 2160 228.5 False x
9/27/2015 17:30    2.01 20 72.00 1580 307.6 False x
10/4/2015 18:00    1.81 13 14.00 1310 52.9 False x
10/11/2015 17:30    1.69 14 78.00 1150 243.2 False x
10/18/2015 15:00    1.54 11 94.00 976 248.5 False x
10/25/2015 16:00    1.55 13 87.00 987 232.9 False x
10/26/2015 10:33    1.55 13 71.00 987 191.6 False x
10/26/2015 11:42    1.55 13 48.00 987 130.4 False x
11/1/2015 13:30    1.64 11 91.00 1090 268.9 False x
11/8/2015 14:00    1.72 10 7.00 1190 24.2 False x
11/15/2015 12:00    1.67 10 96.00 1130 295.7 False x
11/22/2015 16:00    1.70 80.00 1170 253.9 False x
11/29/2015 17:00    2.79 30.00 2850 234.7 False x
12/6/2015 13:00    2.20 78.00 1860 395.7 False x
12/13/2015 11:30    2.03 11 68.00 1610 296.2 False x
12/20/2015 16:00    2.12 33.00 1740 155.4 False x
12/27/2015 11:00    3.47 124.00 4230 1,422.5 False x
12/30/2015 13:00    5.44 89.00 8610 2,075.0 False x
1/3/2016 16:00    4.22 116.00 6030 1,892.0 False x
1/10/2016 10:00    3.62 54.00 4570 675.6 False x
1/17/2016 15:00    3.30 47.00 3870 491.5 False x
1/24/2016 16:00    2.73 76.00 2740 566.8 False x
1/31/2016 06:30    2.51 20.00 2360 131.0 False x
2/7/2016 15:00    2.73 37.00 2740 274.6 False x
2/14/2016 14:00    2.65 20.00 2600 143.6 False x
2/21/2016 07:00    2.21 75.00 1870 383.1 False x
2/28/2016 07:30    2.44 28.00 2240 170.4 False x
3/6/2016 08:00    3.12 25.00 3490 238.9 False x
3/13/2016 14:00    3.05 10 36.00 3350 326.7 False x
3/20/2016 08:00    3.38 30.00 4040 331.9 False x
3/27/2016 08:00    3.00 10 27.00 3250 239.2 False x
4/3/2016 19:00    3.34 10 33.00 3950 359.7 False x
4/10/2016 11:30    3.70 63.00 4750 817.6 False x
4/12/2016 12:08    4.04 51.00 5570 767.0 False x
4/12/2016 13:25    4.03 51.00 5540 773.2 False x
4/17/2016 18:00    3.62 16 39.00 4570 492.7 False x
4/24/2016 11:30    3.03 15 65.00 3310 583.7 False x
5/1/2016 11:30    2.80 12 41.00 2870 324.2 False x
5/8/2016 18:00    2.85 13 30.00 2970 243.7 False x
5/15/2016 19:00    3.20 14 74.00 3660 739.8 False x
5/22/2016 18:30    2.74 20 66.00 2760 497.3 False x
5/29/2016 19:30    2.32 24 61.00 2050 342.7 False x
6/5/2016 19:00    2.10 22 77.00 1710 359.8 False x
6/12/2016 20:30    1.92 23 58.00 1450 229.6 False x
6/13/2016 11:27    1.90 24 42.00 1430 164.3 False x
6/13/2016 12:28    1.90 25 43.00 1430 169.9 False x
6/19/2016 19:00    1.64 23 50.00 1090 150.0 False x
6/26/2016 19:30    1.92 23 60.00 1450 238.6 False x
7/3/2016 19:00    1.72 24 32.00 1190 104.6 False x
7/10/2016 18:00    1.60 26 14.00 1050 41.1 False x
7/17/2016 19:30    1.52 25 27.00 953 69.6 False x
7/24/2016 18:30    2.75 26 63.00 2780 474.4 False x
7/31/2016 19:00    1.86 29 10.00 1370 40.4 False x
8/7/2016 18:30    1.31 28 62.00 729 123.9 False x
8/14/2016 19:00    1.62 26 333.00 1070 964.1 False x
8/21/2016 18:00    4.50 21 179.00 6770 3,280.1 False x
8/22/2016 11:36    4.28 21 57.00 6180 966.4 False x
8/22/2016 12:39    4.27 22 71.00 6160 1,189.6 False x
8/28/2016 08:30    5.04 22 126.00 7810 2,658.1 False x
9/4/2016 17:00    3.33 22 53.00 3930 572.9 False x
9/11/2016 11:00    3.25 20 60.00 3760 609.8 False x
9/18/2016 16:00    3.42 22 38.00 4120 426.8 False x
9/25/2016 17:00    2.59 22 38.00 2500 261.5 False x
10/2/2016 18:00    3.06 17 29.00 3370 271.3 False x
10/9/2016 17:00    2.96 16 48.00 3180 420.2 False x
10/16/2016 18:00    2.64 15 33.00 2580 231.9 False x
10/23/2016 17:00    2.55 12 15.00 2430 104.0 False x
10/30/2016 15:00    2.65 12 16.00 2600 117.1 False x
11/6/2016 16:00    2.95 12 28.00 3160 243.1 False x
11/13/2016 08:00    3.01 15.00 3270 138.5 False x
11/14/2016 11:40    2.78 11.00 2840 85.8 False x
11/14/2016 12:43    2.78 9.00 2840 76.2 False x
4/4/2017 13:36    3.90 11 28.00 5230 400.5 False x
4/4/2017 14:37    3.90 11 29.00 5230 421.8 False x

Data Set Parameters and Explanation

Help with downloading, csv files, printing, and more





Illinois State Water Survey

2204 Griffith Dr
Champaign, IL 61820-7463
217-244-5459
info@isws.illinois.edu

Terms of use. Email the Web Administrator with questions or comments.

© 2017 University of Illinois Board of Trustees. All rights reserved.
For permissions information, contact the Illinois State Water Survey.
Site Map